PWSweather.com
Personal Weather Stations
Station Observations
OZIERI
Punta Idda, OzieriIT

Punta IddaOzieriIT

Lat: 40.584142, Lon: 9.007657999999992

Elevation: 1483

Station Type: Lacrosse ws2350

www.ozierimeteo.altervista.com

High Low Average
Temperature 66.9°F19.4°C 54.0°F12.2°C 59.2°F15.1°C
Dew Point 51.4°F10.8°C 45.9°F7.7°C 48.9°F9.4°C
Winds 7.4 mph 11.9 kmh 0.2 mph 0.3 kmh 2.0 mph ESE3.2 kmh ESE
Wind Gusts 13.9 mph22.4 kmh -- 4.0 mph6.4 kmh
Humidity 82% 50% 70%
Pressure 30.25 in1024.4 mb 30.16 in1021.3 mb -
Precipitation 0.00 in0.0 mm - -
Hour Temp Dew Point Humidity Winds Wind Gusts Pressure Precip Precip Rate Daily Precip Total
12:01 AM 57.0°F13.9°C 50.5°F10.3°C 79% 4.3 mph E6.9 kmh E 8.5 mph13.7 kmh 30.16 in1021.3 mb 0.00 in0.0 mm 0.00 in0.0 mm 0.00 in0.0 mm
12:03 AM 57.0°F13.9°C 50.5°F10.3°C 79% 5.1 mph E8.2 kmh E 9.6 mph15.4 kmh 30.16 in1021.3 mb 0.00 in0.0 mm 0.00 in0.0 mm 0.00 in0.0 mm
12:05 AM 57.0°F13.9°C 50.5°F10.3°C 79% 5.6 mph ESE9.0 kmh ESE 8.9 mph14.3 kmh 30.16 in1021.3 mb 0.00 in0.0 mm 0.00 in0.0 mm 0.00 in0.0 mm
12:07 AM 57.0°F13.9°C 50.5°F10.3°C 79% 4.9 mph E7.9 kmh E 7.2 mph11.6 kmh 30.16 in1021.3 mb 0.00 in0.0 mm 0.00 in0.0 mm 0.00 in0.0 mm
12:09 AM 57.0°F13.9°C 50.5°F10.3°C 79% 5.4 mph ESE8.7 kmh ESE 9.6 mph15.4 kmh 30.16 in1021.3 mb 0.00 in0.0 mm 0.00 in0.0 mm 0.00 in0.0 mm
12:11 AM 57.0°F13.9°C 50.5°F10.3°C 79% 6.0 mph ESE9.7 kmh ESE 11.2 mph18.0 kmh 30.16 in1021.3 mb 0.00 in0.0 mm 0.00 in0.0 mm 0.00 in0.0 mm
12:13 AM 57.0°F13.9°C 50.5°F10.3°C 79% 4.5 mph SE7.2 kmh SE 8.1 mph13.0 kmh 30.16 in1021.3 mb 0.00 in0.0 mm 0.00 in0.0 mm 0.00 in0.0 mm
12:16 AM 57.0°F13.9°C 50.5°F10.3°C 79% 4.5 mph ESE7.2 kmh ESE 8.9 mph14.3 kmh 30.17 in1021.7 mb 0.00 in0.0 mm 0.00 in0.0 mm 0.00 in0.0 mm
12:18 AM 57.0°F13.9°C 50.5°F10.3°C 79% 5.8 mph ESE9.3 kmh ESE 9.8 mph15.8 kmh 30.17 in1021.7 mb 0.00 in0.0 mm 0.00 in0.0 mm 0.00 in0.0 mm
12:20 AM 57.0°F13.9°C 50.5°F10.3°C 79% 4.9 mph ESE7.9 kmh ESE 5.6 mph9.0 kmh 30.16 in1021.3 mb 0.00 in0.0 mm 0.00 in0.0 mm 0.00 in0.0 mm
12:22 AM 57.0°F13.9°C 50.5°F10.3°C 79% 4.9 mph ENE7.9 kmh ENE 6.0 mph9.7 kmh 30.16 in1021.3 mb 0.00 in0.0 mm 0.00 in0.0 mm 0.00 in0.0 mm
12:25 AM 57.0°F13.9°C 50.5°F10.3°C 79% 4.9 mph ESE7.9 kmh ESE 6.9 mph11.1 kmh 30.16 in1021.3 mb 0.00 in0.0 mm 0.00 in0.0 mm 0.00 in0.0 mm
12:27 AM 57.0°F13.9°C 50.5°F10.3°C 79% 4.5 mph ESE7.2 kmh ESE 6.0 mph9.7 kmh 30.16 in1021.3 mb 0.00 in0.0 mm 0.00 in0.0 mm 0.00 in0.0 mm
12:29 AM 57.0°F13.9°C 50.5°F10.3°C 79% 4.5 mph ESE7.2 kmh ESE 8.1 mph13.0 kmh 30.16 in1021.3 mb 0.00 in0.0 mm 0.00 in0.0 mm 0.00 in0.0 mm
12:31 AM 57.0°F13.9°C 50.5°F10.3°C 79% 4.3 mph ESE6.9 kmh ESE 5.6 mph9.0 kmh 30.16 in1021.3 mb 0.00 in0.0 mm 0.00 in0.0 mm 0.00 in0.0 mm
12:33 AM 57.0°F13.9°C 50.5°F10.3°C 79% 3.8 mph ESE6.1 kmh ESE 6.0 mph9.7 kmh 30.16 in1021.3 mb 0.00 in0.0 mm 0.00 in0.0 mm 0.00 in0.0 mm
12:36 AM 57.0°F13.9°C 50.5°F10.3°C 79% 4.3 mph ESE6.9 kmh ESE 8.5 mph13.7 kmh 30.16 in1021.3 mb 0.00 in0.0 mm 0.00 in0.0 mm 0.00 in0.0 mm
12:38 AM 57.0°F13.9°C 50.2°F10.1°C 78% 3.1 mph ENE5.0 kmh ENE 4.9 mph7.9 kmh 30.16 in1021.3 mb 0.00 in0.0 mm 0.00 in0.0 mm 0.00 in0.0 mm
12:40 AM 57.0°F13.9°C 50.2°F10.1°C 78% 3.6 mph E5.8 kmh E 6.9 mph11.1 kmh 30.16 in1021.3 mb 0.00 in0.0 mm 0.00 in0.0 mm 0.00 in0.0 mm
12:42 AM 57.0°F13.9°C 50.2°F10.1°C 78% 2.9 mph NE4.7 kmh NE 3.4 mph5.5 kmh 30.16 in1021.3 mb 0.00 in0.0 mm 0.00 in0.0 mm 0.00 in0.0 mm
12:45 AM 57.0°F13.9°C 50.2°F10.1°C 78% 1.8 mph ENE2.9 kmh ENE 2.2 mph3.5 kmh 30.16 in1021.3 mb 0.00 in0.0 mm 0.00 in0.0 mm 0.00 in0.0 mm
12:47 AM 57.0°F13.9°C 50.2°F10.1°C 78% 2.0 mph ESE3.2 kmh ESE 6.0 mph9.7 kmh 30.16 in1021.3 mb 0.00 in0.0 mm 0.00 in0.0 mm 0.00 in0.0 mm
12:49 AM 57.0°F13.9°C 50.2°F10.1°C 78% 1.8 mph SE2.9 kmh SE 3.8 mph6.1 kmh 30.16 in1021.3 mb 0.00 in0.0 mm 0.00 in0.0 mm 0.00 in0.0 mm
12:51 AM 57.0°F13.9°C 50.2°F10.1°C 78% 3.4 mph ESE5.5 kmh ESE 7.4 mph11.9 kmh 30.16 in1021.3 mb 0.00 in0.0 mm 0.00 in0.0 mm 0.00 in0.0 mm
12:53 AM 57.0°F13.9°C 50.2°F10.1°C 78% 4.0 mph ESE6.4 kmh ESE 5.4 mph8.7 kmh 30.16 in1021.3 mb 0.00 in0.0 mm 0.00 in0.0 mm 0.00 in0.0 mm
12:56 AM 57.4°F14.1°C 50.5°F10.3°C 78% 4.0 mph ESE6.4 kmh ESE 6.0 mph9.7 kmh 30.16 in1021.3 mb 0.00 in0.0 mm 0.00 in0.0 mm 0.00 in0.0 mm
12:58 AM 57.4°F14.1°C 50.5°F10.3°C 78% 4.7 mph ESE7.6 kmh ESE 6.7 mph10.8 kmh 30.16 in1021.3 mb 0.00 in0.0 mm 0.00 in0.0 mm 0.00 in0.0 mm
01:00 AM 57.4°F14.1°C 50.5°F10.3°C 78% 4.3 mph SE6.9 kmh SE 7.6 mph12.2 kmh 30.16 in1021.3 mb 0.00 in0.0 mm 0.00 in0.0 mm 0.00 in0.0 mm
01:02 AM 57.4°F14.1°C 50.5°F10.3°C 78% 4.0 mph ESE6.4 kmh ESE 4.7 mph7.6 kmh 30.16 in1021.3 mb 0.00 in0.0 mm 0.00 in0.0 mm 0.00 in0.0 mm
01:04 AM 57.4°F14.1°C 50.5°F10.3°C 78% 5.1 mph ESE8.2 kmh ESE 9.2 mph14.8 kmh 30.16 in1021.3 mb 0.00 in0.0 mm 0.00 in0.0 mm 0.00 in0.0 mm
01:07 AM 57.4°F14.1°C 50.5°F10.3°C 78% 4.7 mph NNE7.6 kmh NNE 6.3 mph10.1 kmh 30.16 in1021.3 mb 0.00 in0.0 mm 0.00 in0.0 mm 0.00 in0.0 mm
01:09 AM 57.4°F14.1°C 50.5°F10.3°C 78% 3.6 mph ENE5.8 kmh ENE 4.7 mph7.6 kmh 30.16 in1021.3 mb 0.00 in0.0 mm 0.00 in0.0 mm 0.00 in0.0 mm
01:11 AM 57.4°F14.1°C 50.5°F10.3°C 78% 2.7 mph SSE4.3 kmh SSE 5.6 mph9.0 kmh 30.16 in1021.3 mb 0.00 in0.0 mm 0.00 in0.0 mm 0.00 in0.0 mm
01:13 AM 57.4°F14.1°C 50.5°F10.3°C 78% 4.5 mph NE7.2 kmh NE 10.1 mph16.3 kmh 30.16 in1021.3 mb 0.00 in0.0 mm 0.00 in0.0 mm 0.00 in0.0 mm
01:15 AM 57.4°F14.1°C 50.5°F10.3°C 78% 4.3 mph ESE6.9 kmh ESE 6.5 mph10.5 kmh 30.16 in1021.3 mb 0.00 in0.0 mm 0.00 in0.0 mm 0.00 in0.0 mm
01:18 AM 57.4°F14.1°C 50.5°F10.3°C 78% 4.5 mph ESE7.2 kmh ESE 7.2 mph11.6 kmh 30.16 in1021.3 mb 0.00 in0.0 mm 0.00 in0.0 mm 0.00 in0.0 mm
01:20 AM 57.4°F14.1°C 50.5°F10.3°C 78% 3.6 mph NE5.8 kmh NE 6.5 mph10.5 kmh 30.16 in1021.3 mb 0.00 in0.0 mm 0.00 in0.0 mm 0.00 in0.0 mm
01:22 AM 57.4°F14.1°C 50.5°F10.3°C 78% 3.4 mph E5.5 kmh E 4.0 mph6.4 kmh 30.16 in1021.3 mb 0.00 in0.0 mm 0.00 in0.0 mm 0.00 in0.0 mm
01:24 AM 57.4°F14.1°C 50.5°F10.3°C 78% 3.8 mph NE6.1 kmh NE 7.6 mph12.2 kmh 30.16 in1021.3 mb 0.00 in0.0 mm 0.00 in0.0 mm 0.00 in0.0 mm
01:27 AM 57.4°F14.1°C 50.5°F10.3°C 78% 3.4 mph E5.5 kmh E 4.5 mph7.2 kmh 30.16 in1021.3 mb 0.00 in0.0 mm 0.00 in0.0 mm 0.00 in0.0 mm
01:29 AM 57.4°F14.1°C 50.5°F10.3°C 78% 3.4 mph E5.5 kmh E 4.5 mph7.2 kmh 30.16 in1021.3 mb 0.00 in0.0 mm 0.00 in0.0 mm 0.00 in0.0 mm
01:31 AM 57.0°F13.9°C 50.2°F10.1°C 78% 2.7 mph ENE4.3 kmh ENE 4.5 mph7.2 kmh 30.16 in1021.3 mb 0.00 in0.0 mm 0.00 in0.0 mm 0.00 in0.0 mm
01:33 AM 57.0°F13.9°C 50.2°F10.1°C 78% 4.0 mph ESE6.4 kmh ESE 7.4 mph11.9 kmh 30.16 in1021.3 mb 0.00 in0.0 mm 0.00 in0.0 mm 0.00 in0.0 mm
01:35 AM 57.4°F14.1°C 50.5°F10.3°C 78% 3.1 mph E5.0 kmh E 4.7 mph7.6 kmh 30.16 in1021.3 mb 0.00 in0.0 mm 0.00 in0.0 mm 0.00 in0.0 mm
01:37 AM 57.4°F14.1°C 50.5°F10.3°C 78% 2.5 mph ESE4.0 kmh ESE 3.6 mph5.8 kmh 30.16 in1021.3 mb 0.00 in0.0 mm 0.00 in0.0 mm 0.00 in0.0 mm
01:39 AM 57.2°F14.0°C 50.4°F10.2°C 78% 3.8 mph E6.1 kmh E 9.4 mph15.1 kmh 30.16 in1021.3 mb 0.00 in0.0 mm 0.00 in0.0 mm 0.00 in0.0 mm
01:42 AM 57.2°F14.0°C 50.4°F10.2°C 78% 5.1 mph ESE8.2 kmh ESE 8.7 mph14.0 kmh 30.16 in1021.3 mb 0.00 in0.0 mm 0.00 in0.0 mm 0.00 in0.0 mm
01:44 AM 57.4°F14.1°C 50.5°F10.3°C 78% 5.8 mph SSE9.3 kmh SSE 11.0 mph17.7 kmh 30.16 in1021.3 mb 0.00 in0.0 mm 0.00 in0.0 mm 0.00 in0.0 mm
01:46 AM 57.4°F14.1°C 50.5°F10.3°C 78% 5.6 mph SE9.0 kmh SE 7.8 mph12.6 kmh 30.16 in1021.3 mb 0.00 in0.0 mm 0.00 in0.0 mm 0.00 in0.0 mm
01:48 AM 57.4°F14.1°C 50.5°F10.3°C 78% 5.8 mph E9.3 kmh E 10.3 mph16.6 kmh 30.16 in1021.3 mb 0.00 in0.0 mm 0.00 in0.0 mm 0.00 in0.0 mm
01:50 AM 57.4°F14.1°C 50.5°F10.3°C 78% 4.5 mph ESE7.2 kmh ESE 4.7 mph7.6 kmh 30.16 in1021.3 mb 0.00 in0.0 mm 0.00 in0.0 mm 0.00 in0.0 mm
01:53 AM 57.4°F14.1°C 50.5°F10.3°C 78% 5.1 mph ESE8.2 kmh ESE 6.9 mph11.1 kmh 30.16 in1021.3 mb 0.00 in0.0 mm 0.00 in0.0 mm 0.00 in0.0 mm
01:55 AM 57.4°F14.1°C 50.2°F10.1°C 77% 5.8 mph E9.3 kmh E 10.5 mph16.9 kmh 30.16 in1021.3 mb 0.00 in0.0 mm 0.00 in0.0 mm 0.00 in0.0 mm
01:57 AM 57.4°F14.1°C 50.2°F10.1°C 77% 4.3 mph ENE6.9 kmh ENE 5.4 mph8.7 kmh 30.16 in1021.3 mb 0.00 in0.0 mm 0.00 in0.0 mm 0.00 in0.0 mm
01:59 AM 57.4°F14.1°C 50.2°F10.1°C 77% 3.6 mph NE5.8 kmh NE 7.6 mph12.2 kmh 30.17 in1021.7 mb 0.00 in0.0 mm 0.00 in0.0 mm 0.00 in0.0 mm
02:02 AM 57.4°F14.1°C 50.2°F10.1°C 77% 3.6 mph ENE5.8 kmh ENE -- 30.17 in1021.7 mb 0.00 in0.0 mm 0.00 in0.0 mm 0.00 in0.0 mm
02:06 AM 57.0°F13.9°C 50.2°F10.1°C 78% 3.6 mph ENE5.8 kmh ENE -- 30.17 in1021.7 mb 0.00 in0.0 mm 0.00 in0.0 mm 0.00 in0.0 mm
02:09 AM 57.0°F13.9°C 50.2°F10.1°C 78% 2.0 mph ENE3.2 kmh ENE 3.8 mph6.1 kmh 30.16 in1021.3 mb 0.00 in0.0 mm 0.00 in0.0 mm 0.00 in0.0 mm
02:11 AM 57.0°F13.9°C 50.2°F10.1°C 78% 3.6 mph ESE5.8 kmh ESE 8.5 mph13.7 kmh 30.16 in1021.3 mb 0.00 in0.0 mm 0.00 in0.0 mm 0.00 in0.0 mm
02:13 AM 57.0°F13.9°C 50.2°F10.1°C 78% 3.4 mph ENE5.5 kmh ENE 7.4 mph11.9 kmh 30.17 in1021.7 mb 0.00 in0.0 mm 0.00 in0.0 mm 0.00 in0.0 mm
02:15 AM 57.0°F13.9°C 50.2°F10.1°C 78% 3.6 mph E5.8 kmh E 6.5 mph10.5 kmh 30.17 in1021.7 mb 0.00 in0.0 mm 0.00 in0.0 mm 0.00 in0.0 mm
02:18 AM 57.0°F13.9°C 50.2°F10.1°C 78% 4.3 mph S6.9 kmh S 9.2 mph14.8 kmh 30.17 in1021.7 mb 0.00 in0.0 mm 0.00 in0.0 mm 0.00 in0.0 mm
02:20 AM 57.0°F13.9°C 50.2°F10.1°C 78% 4.7 mph SE7.6 kmh SE 8.3 mph13.4 kmh 30.17 in1021.7 mb 0.00 in0.0 mm 0.00 in0.0 mm 0.00 in0.0 mm
02:22 AM 57.0°F13.9°C 50.2°F10.1°C 78% 4.5 mph ENE7.2 kmh ENE 5.4 mph8.7 kmh 30.17 in1021.7 mb 0.00 in0.0 mm 0.00 in0.0 mm 0.00 in0.0 mm
02:24 AM 56.8°F13.8°C 50.0°F10.0°C 78% 4.7 mph E7.6 kmh E 6.7 mph10.8 kmh 30.16 in1021.3 mb 0.00 in0.0 mm 0.00 in0.0 mm 0.00 in0.0 mm
02:26 AM 56.8°F13.8°C 50.0°F10.0°C 78% 4.3 mph E6.9 kmh E 6.0 mph9.7 kmh 30.16 in1021.3 mb 0.00 in0.0 mm 0.00 in0.0 mm 0.00 in0.0 mm
02:29 AM 56.7°F13.7°C 49.8°F9.9°C 78% 4.5 mph E7.2 kmh E 6.7 mph10.8 kmh 30.17 in1021.7 mb 0.00 in0.0 mm 0.00 in0.0 mm 0.00 in0.0 mm
02:31 AM 56.7°F13.7°C 49.8°F9.9°C 78% 5.1 mph E8.2 kmh E 7.4 mph11.9 kmh 30.17 in1021.7 mb 0.00 in0.0 mm 0.00 in0.0 mm 0.00 in0.0 mm
02:33 AM 56.8°F13.8°C 50.0°F10.0°C 78% 4.0 mph ENE6.4 kmh ENE 6.0 mph9.7 kmh 30.17 in1021.7 mb 0.00 in0.0 mm 0.00 in0.0 mm 0.00 in0.0 mm
02:35 AM 56.7°F13.7°C 49.8°F9.9°C 78% 3.6 mph ENE5.8 kmh ENE 4.0 mph6.4 kmh 30.17 in1021.7 mb 0.00 in0.0 mm 0.00 in0.0 mm 0.00 in0.0 mm
02:37 AM 56.5°F13.6°C 49.6°F9.8°C 78% 4.3 mph ESE6.9 kmh ESE 6.0 mph9.7 kmh 30.17 in1021.7 mb 0.00 in0.0 mm 0.00 in0.0 mm 0.00 in0.0 mm
02:39 AM 56.5°F13.6°C 49.6°F9.8°C 78% 4.9 mph ESE7.9 kmh ESE 10.3 mph16.6 kmh 30.16 in1021.3 mb 0.00 in0.0 mm 0.00 in0.0 mm 0.00 in0.0 mm
02:41 AM 56.5°F13.6°C 50.0°F10.0°C 79% 4.9 mph ENE7.9 kmh ENE 11.9 mph19.2 kmh 30.17 in1021.7 mb 0.00 in0.0 mm 0.00 in0.0 mm 0.00 in0.0 mm
02:43 AM 56.5°F13.6°C 50.0°F10.0°C 79% 4.5 mph ESE7.2 kmh ESE 8.9 mph14.3 kmh 30.17 in1021.7 mb 0.00 in0.0 mm 0.00 in0.0 mm 0.00 in0.0 mm
02:46 AM 56.5°F13.6°C 50.0°F10.0°C 79% 3.6 mph SSE5.8 kmh SSE 8.7 mph14.0 kmh 30.17 in1021.7 mb 0.00 in0.0 mm 0.00 in0.0 mm 0.00 in0.0 mm
02:48 AM 56.3°F13.5°C 49.8°F9.9°C 79% 3.1 mph ESE5.0 kmh ESE 6.0 mph9.7 kmh 30.16 in1021.3 mb 0.00 in0.0 mm 0.00 in0.0 mm 0.00 in0.0 mm
02:50 AM 56.3°F13.5°C 49.8°F9.9°C 79% 2.2 mph NE3.5 kmh NE 2.9 mph4.7 kmh 30.17 in1021.7 mb 0.00 in0.0 mm 0.00 in0.0 mm 0.00 in0.0 mm
02:52 AM 56.1°F13.4°C 49.6°F9.8°C 79% 2.0 mph ESE3.2 kmh ESE 3.8 mph6.1 kmh 30.17 in1021.7 mb 0.00 in0.0 mm 0.00 in0.0 mm 0.00 in0.0 mm
02:54 AM 55.9°F13.3°C 49.5°F9.7°C 79% 1.8 mph E2.9 kmh E 4.3 mph6.9 kmh 30.17 in1021.7 mb 0.00 in0.0 mm 0.00 in0.0 mm 0.00 in0.0 mm
02:57 AM 55.9°F13.3°C 49.5°F9.7°C 79% 1.3 mph ENE2.1 kmh ENE 2.7 mph4.3 kmh 30.17 in1021.7 mb 0.00 in0.0 mm 0.00 in0.0 mm 0.00 in0.0 mm
02:59 AM 55.8°F13.2°C 49.3°F9.6°C 79% 2.0 mph E3.2 kmh E 4.0 mph6.4 kmh 30.17 in1021.7 mb 0.00 in0.0 mm 0.00 in0.0 mm 0.00 in0.0 mm
03:01 AM 55.8°F13.2°C 49.3°F9.6°C 79% 2.7 mph ENE4.3 kmh ENE 6.9 mph11.1 kmh 30.17 in1021.7 mb 0.00 in0.0 mm 0.00 in0.0 mm 0.00 in0.0 mm
03:03 AM 55.8°F13.2°C 49.3°F9.6°C 79% 2.7 mph SE4.3 kmh SE 4.0 mph6.4 kmh 30.17 in1021.7 mb 0.00 in0.0 mm 0.00 in0.0 mm 0.00 in0.0 mm
03:05 AM 55.8°F13.2°C 49.6°F9.8°C 80% 2.7 mph NNE4.3 kmh NNE 5.8 mph9.3 kmh 30.16 in1021.3 mb 0.00 in0.0 mm 0.00 in0.0 mm 0.00 in0.0 mm
03:08 AM 55.8°F13.2°C 49.6°F9.8°C 80% 2.7 mph ESE4.3 kmh ESE 3.8 mph6.1 kmh 30.16 in1021.3 mb 0.00 in0.0 mm 0.00 in0.0 mm 0.00 in0.0 mm
03:10 AM 55.8°F13.2°C 49.6°F9.8°C 80% 4.3 mph SSW6.9 kmh SSW 11.0 mph17.7 kmh 30.16 in1021.3 mb 0.00 in0.0 mm 0.00 in0.0 mm 0.00 in0.0 mm
03:12 AM 55.8°F13.2°C 49.6°F9.8°C 80% 3.8 mph ESE6.1 kmh ESE 5.4 mph8.7 kmh 30.16 in1021.3 mb 0.00 in0.0 mm 0.00 in0.0 mm 0.00 in0.0 mm
03:15 AM 55.8°F13.2°C 49.6°F9.8°C 80% 4.0 mph ESE6.4 kmh ESE 6.0 mph9.7 kmh 30.16 in1021.3 mb 0.00 in0.0 mm 0.00 in0.0 mm 0.00 in0.0 mm
03:17 AM 55.8°F13.2°C 49.6°F9.8°C 80% 4.0 mph ESE6.4 kmh ESE 4.9 mph7.9 kmh 30.16 in1021.3 mb 0.00 in0.0 mm 0.00 in0.0 mm 0.00 in0.0 mm
03:19 AM 55.8°F13.2°C 49.6°F9.8°C 80% 3.4 mph E5.5 kmh E 6.7 mph10.8 kmh 30.16 in1021.3 mb 0.00 in0.0 mm 0.00 in0.0 mm 0.00 in0.0 mm
03:21 AM 55.8°F13.2°C 49.6°F9.8°C 80% 3.1 mph 5.0 kmh 6.0 mph9.7 kmh 30.16 in1021.3 mb 0.00 in0.0 mm 0.00 in0.0 mm 0.00 in0.0 mm
03:24 AM 55.8°F13.2°C 49.6°F9.8°C 80% 2.7 mph SE4.3 kmh SE 4.0 mph6.4 kmh 30.16 in1021.3 mb 0.00 in0.0 mm 0.00 in0.0 mm 0.00 in0.0 mm
03:26 AM 55.8°F13.2°C 49.6°F9.8°C 80% 2.5 mph ESE4.0 kmh ESE 4.3 mph6.9 kmh 30.16 in1021.3 mb 0.00 in0.0 mm 0.00 in0.0 mm 0.00 in0.0 mm
03:28 AM 55.8°F13.2°C 49.6°F9.8°C 80% 2.9 mph ENE4.7 kmh ENE 6.3 mph10.1 kmh 30.16 in1021.3 mb 0.00 in0.0 mm 0.00 in0.0 mm 0.00 in0.0 mm
03:30 AM 55.8°F13.2°C 49.6°F9.8°C 80% 2.0 mph NE3.2 kmh NE 5.6 mph9.0 kmh 30.17 in1021.7 mb 0.00 in0.0 mm 0.00 in0.0 mm 0.00 in0.0 mm
03:32 AM 55.6°F13.1°C 49.5°F9.7°C 80% 1.6 mph ESE2.6 kmh ESE 2.9 mph4.7 kmh 30.16 in1021.3 mb 0.00 in0.0 mm 0.00 in0.0 mm 0.00 in0.0 mm
03:34 AM 55.6°F13.1°C 49.5°F9.7°C 80% 1.3 mph E2.1 kmh E 3.4 mph5.5 kmh 30.16 in1021.3 mb 0.00 in0.0 mm 0.00 in0.0 mm 0.00 in0.0 mm
03:36 AM 55.6°F13.1°C 49.5°F9.7°C 80% 1.3 mph E2.1 kmh E 3.6 mph5.8 kmh 30.16 in1021.3 mb 0.00 in0.0 mm 0.00 in0.0 mm 0.00 in0.0 mm
03:38 AM 55.6°F13.1°C 49.1°F9.5°C 79% 1.3 mph ESE2.1 kmh ESE 4.0 mph6.4 kmh 30.17 in1021.7 mb 0.00 in0.0 mm 0.00 in0.0 mm 0.00 in0.0 mm
03:41 AM 55.6°F13.1°C 49.1°F9.5°C 79% 1.3 mph NE2.1 kmh NE 4.5 mph7.2 kmh 30.16 in1021.3 mb 0.00 in0.0 mm 0.00 in0.0 mm 0.00 in0.0 mm
03:43 AM 55.4°F13.0°C 48.9°F9.4°C 79% 2.7 mph E4.3 kmh E 5.8 mph9.3 kmh 30.17 in1021.7 mb 0.00 in0.0 mm 0.00 in0.0 mm 0.00 in0.0 mm
03:45 AM 55.4°F13.0°C 49.3°F9.6°C 80% 2.9 mph E4.7 kmh E 6.0 mph9.7 kmh 30.17 in1021.7 mb 0.00 in0.0 mm 0.00 in0.0 mm 0.00 in0.0 mm
03:47 AM 55.4°F13.0°C 49.3°F9.6°C 80% 2.0 mph ENE3.2 kmh ENE 2.9 mph4.7 kmh 30.17 in1021.7 mb 0.00 in0.0 mm 0.00 in0.0 mm 0.00 in0.0 mm
03:49 AM 55.2°F12.9°C 49.1°F9.5°C 80% 2.0 mph ENE3.2 kmh ENE 4.5 mph7.2 kmh 30.16 in1021.3 mb 0.00 in0.0 mm 0.00 in0.0 mm 0.00 in0.0 mm
03:52 AM 55.2°F12.9°C 49.1°F9.5°C 80% 2.9 mph ESE4.7 kmh ESE 5.8 mph9.3 kmh 30.16 in1021.3 mb 0.00 in0.0 mm 0.00 in0.0 mm 0.00 in0.0 mm
03:54 AM 55.2°F12.9°C 49.1°F9.5°C 80% 1.8 mph E2.9 kmh E 1.6 mph2.6 kmh 30.17 in1021.7 mb 0.00 in0.0 mm 0.00 in0.0 mm 0.00 in0.0 mm
03:56 AM 55.2°F12.9°C 49.1°F9.5°C 80% 0.9 mph E1.4 kmh E 1.1 mph1.8 kmh 30.17 in1021.7 mb 0.00 in0.0 mm 0.00 in0.0 mm 0.00 in0.0 mm
03:58 AM 55.2°F12.9°C 49.1°F9.5°C 80% 2.0 mph E3.2 kmh E 5.1 mph8.2 kmh 30.17 in1021.7 mb 0.00 in0.0 mm 0.00 in0.0 mm 0.00 in0.0 mm
04:00 AM 55.2°F12.9°C 49.1°F9.5°C 80% 2.2 mph ESE3.5 kmh ESE 3.8 mph6.1 kmh 30.16 in1021.3 mb 0.00 in0.0 mm 0.00 in0.0 mm 0.00 in0.0 mm
04:03 AM 55.2°F12.9°C 49.1°F9.5°C 80% 2.2 mph E3.5 kmh E 4.3 mph6.9 kmh 30.17 in1021.7 mb 0.00 in0.0 mm 0.00 in0.0 mm 0.00 in0.0 mm
04:05 AM 55.2°F12.9°C 49.1°F9.5°C 80% 1.6 mph SE2.6 kmh SE 3.8 mph6.1 kmh 30.17 in1021.7 mb 0.00 in0.0 mm 0.00 in0.0 mm 0.00 in0.0 mm
04:07 AM 55.2°F12.9°C 49.1°F9.5°C 80% 1.1 mph E1.8 kmh E 1.6 mph2.6 kmh 30.17 in1021.7 mb 0.00 in0.0 mm 0.00 in0.0 mm 0.00 in0.0 mm
04:09 AM 55.2°F12.9°C 49.1°F9.5°C 80% 0.9 mph 1.4 kmh 1.8 mph2.9 kmh 30.17 in1021.7 mb 0.00 in0.0 mm 0.00 in0.0 mm 0.00 in0.0 mm
04:12 AM 55.2°F12.9°C 49.1°F9.5°C 80% 1.3 mph E2.1 kmh E 3.1 mph5.0 kmh 30.17 in1021.7 mb 0.00 in0.0 mm 0.00 in0.0 mm 0.00 in0.0 mm
04:14 AM 55.2°F12.9°C 49.5°F9.7°C 81% 1.8 mph SE2.9 kmh SE 3.1 mph5.0 kmh 30.17 in1021.7 mb 0.00 in0.0 mm 0.00 in0.0 mm 0.00 in0.0 mm
04:16 AM 55.2°F12.9°C 49.5°F9.7°C 81% 1.8 mph ESE2.9 kmh ESE 4.7 mph7.6 kmh 30.17 in1021.7 mb 0.00 in0.0 mm 0.00 in0.0 mm 0.00 in0.0 mm
04:18 AM 55.2°F12.9°C 49.5°F9.7°C 81% 1.6 mph SE2.6 kmh SE 2.5 mph4.0 kmh 30.17 in1021.7 mb 0.00 in0.0 mm 0.00 in0.0 mm 0.00 in0.0 mm
04:21 AM 55.2°F12.9°C 49.5°F9.7°C 81% 2.0 mph ESE3.2 kmh ESE 4.5 mph7.2 kmh 30.17 in1021.7 mb 0.00 in0.0 mm 0.00 in0.0 mm 0.00 in0.0 mm
04:23 AM 55.2°F12.9°C 49.5°F9.7°C 81% 2.7 mph E4.3 kmh E 5.1 mph8.2 kmh 30.16 in1021.3 mb 0.00 in0.0 mm 0.00 in0.0 mm 0.00 in0.0 mm
04:25 AM 55.2°F12.9°C 49.5°F9.7°C 81% 2.5 mph ESE4.0 kmh ESE 6.0 mph9.7 kmh 30.16 in1021.3 mb 0.00 in0.0 mm 0.00 in0.0 mm 0.00 in0.0 mm
04:27 AM 55.2°F12.9°C 49.5°F9.7°C 81% 2.0 mph ESE3.2 kmh ESE 3.1 mph5.0 kmh 30.16 in1021.3 mb 0.00 in0.0 mm 0.00 in0.0 mm 0.00 in0.0 mm
04:29 AM 55.4°F13.0°C 49.6°F9.8°C 81% 1.1 mph 1.8 kmh 2.7 mph4.3 kmh 30.16 in1021.3 mb 0.00 in0.0 mm 0.00 in0.0 mm 0.00 in0.0 mm
04:31 AM 55.2°F12.9°C 49.5°F9.7°C 81% 0.7 mph NNE1.1 kmh NNE -- 30.16 in1021.3 mb 0.00 in0.0 mm 0.00 in0.0 mm 0.00 in0.0 mm
04:34 AM 55.2°F12.9°C 49.5°F9.7°C 81% 0.4 mph SE0.6 kmh SE -- 30.16 in1021.3 mb 0.00 in0.0 mm 0.00 in0.0 mm 0.00 in0.0 mm
04:36 AM 55.2°F12.9°C 49.5°F9.7°C 81% 0.4 mph E0.6 kmh E 1.3 mph2.1 kmh 30.16 in1021.3 mb 0.00 in0.0 mm 0.00 in0.0 mm 0.00 in0.0 mm
04:38 AM 55.2°F12.9°C 49.5°F9.7°C 81% 0.4 mph NNW0.6 kmh NNW 1.6 mph2.6 kmh 30.16 in1021.3 mb 0.00 in0.0 mm 0.00 in0.0 mm 0.00 in0.0 mm
04:40 AM 55.2°F12.9°C 49.5°F9.7°C 81% 0.9 mph W1.4 kmh W 3.6 mph5.8 kmh 30.16 in1021.3 mb 0.00 in0.0 mm 0.00 in0.0 mm 0.00 in0.0 mm
04:43 AM 55.2°F12.9°C 49.5°F9.7°C 81% 1.1 mph ENE1.8 kmh ENE 4.3 mph6.9 kmh 30.16 in1021.3 mb 0.00 in0.0 mm 0.00 in0.0 mm 0.00 in0.0 mm
04:45 AM 55.2°F12.9°C 49.5°F9.7°C 81% 0.9 mph 1.4 kmh 2.0 mph3.2 kmh 30.16 in1021.3 mb 0.00 in0.0 mm 0.00 in0.0 mm 0.00 in0.0 mm
04:47 AM 55.2°F12.9°C 49.5°F9.7°C 81% 2.5 mph ENE4.0 kmh ENE 6.7 mph10.8 kmh 30.16 in1021.3 mb 0.00 in0.0 mm 0.00 in0.0 mm 0.00 in0.0 mm
04:49 AM 55.2°F12.9°C 49.5°F9.7°C 81% 1.8 mph NNW2.9 kmh NNW 2.5 mph4.0 kmh 30.17 in1021.7 mb 0.00 in0.0 mm 0.00 in0.0 mm 0.00 in0.0 mm
04:51 AM 55.2°F12.9°C 49.5°F9.7°C 81% 0.9 mph WSW1.4 kmh WSW -- 30.16 in1021.3 mb 0.00 in0.0 mm 0.00 in0.0 mm 0.00 in0.0 mm
04:54 AM 55.2°F12.9°C 49.5°F9.7°C 81% 0.7 mph NNW1.1 kmh NNW 1.6 mph2.6 kmh 30.17 in1021.7 mb 0.00 in0.0 mm 0.00 in0.0 mm 0.00 in0.0 mm
04:56 AM 55.2°F12.9°C 49.5°F9.7°C 81% 0.4 mph NE0.6 kmh NE 0.9 mph1.4 kmh 30.17 in1021.7 mb 0.00 in0.0 mm 0.00 in0.0 mm 0.00 in0.0 mm
04:58 AM 55.2°F12.9°C 49.5°F9.7°C 81% 1.1 mph SSE1.8 kmh SSE 4.9 mph7.9 kmh 30.17 in1021.7 mb 0.00 in0.0 mm 0.00 in0.0 mm 0.00 in0.0 mm
05:00 AM 55.2°F12.9°C 49.5°F9.7°C 81% 0.7 mph NW1.1 kmh NW -- 30.16 in1021.3 mb 0.00 in0.0 mm 0.00 in0.0 mm 0.00 in0.0 mm
05:02 AM 55.2°F12.9°C 49.5°F9.7°C 81% 0.4 mph E0.6 kmh E -- 30.16 in1021.3 mb 0.00 in0.0 mm 0.00 in0.0 mm 0.00 in0.0 mm
05:05 AM 55.2°F12.9°C 49.5°F9.7°C 81% 0.4 mph SE0.6 kmh SE 2.0 mph3.2 kmh 30.17 in1021.7 mb 0.00 in0.0 mm 0.00 in0.0 mm 0.00 in0.0 mm
05:07 AM 55.2°F12.9°C 49.5°F9.7°C 81% 0.4 mph 0.6 kmh 1.8 mph2.9 kmh 30.17 in1021.7 mb 0.00 in0.0 mm 0.00 in0.0 mm 0.00 in0.0 mm
05:09 AM 55.2°F12.9°C 49.5°F9.7°C 81% 0.7 mph NNE1.1 kmh NNE 2.9 mph4.7 kmh 30.17 in1021.7 mb 0.00 in0.0 mm 0.00 in0.0 mm 0.00 in0.0 mm
05:11 AM 55.2°F12.9°C 49.5°F9.7°C 81% 1.1 mph NE1.8 kmh NE 2.9 mph4.7 kmh 30.17 in1021.7 mb 0.00 in0.0 mm 0.00 in0.0 mm 0.00 in0.0 mm
05:13 AM 55.2°F12.9°C 49.5°F9.7°C 81% 0.7 mph SE1.1 kmh SE 1.1 mph1.8 kmh 30.17 in1021.7 mb 0.00 in0.0 mm 0.00 in0.0 mm 0.00 in0.0 mm
05:15 AM 55.2°F12.9°C 49.5°F9.7°C 81% 0.4 mph NE0.6 kmh NE -- 30.17 in1021.7 mb 0.00 in0.0 mm 0.00 in0.0 mm 0.00 in0.0 mm
05:18 AM 55.2°F12.9°C 49.5°F9.7°C 81% 0.2 mph SSE0.3 kmh SSE -- 30.17 in1021.7 mb 0.00 in0.0 mm 0.00 in0.0 mm 0.00 in0.0 mm
05:20 AM 55.2°F12.9°C 49.5°F9.7°C 81% 0.4 mph SSW0.6 kmh SSW 1.6 mph2.6 kmh 30.17 in1021.7 mb 0.00 in0.0 mm 0.00 in0.0 mm 0.00 in0.0 mm
05:22 AM 55.2°F12.9°C 49.5°F9.7°C 81% 1.1 mph NNW1.8 kmh NNW 4.5 mph7.2 kmh 30.17 in1021.7 mb 0.00 in0.0 mm 0.00 in0.0 mm 0.00 in0.0 mm
05:24 AM 55.2°F12.9°C 49.5°F9.7°C 81% 0.7 mph ENE1.1 kmh ENE 1.3 mph2.1 kmh 30.17 in1021.7 mb 0.00 in0.0 mm 0.00 in0.0 mm 0.00 in0.0 mm
05:27 AM 55.2°F12.9°C 49.5°F9.7°C 81% 2.2 mph ENE3.5 kmh ENE 7.8 mph12.6 kmh 30.17 in1021.7 mb 0.00 in0.0 mm 0.00 in0.0 mm 0.00 in0.0 mm
05:29 AM 55.2°F12.9°C 49.5°F9.7°C 81% 1.6 mph E2.6 kmh E 2.5 mph4.0 kmh 30.17 in1021.7 mb 0.00 in0.0 mm 0.00 in0.0 mm 0.00 in0.0 mm
05:31 AM 55.2°F12.9°C 49.5°F9.7°C 81% 1.3 mph NE2.1 kmh NE 5.8 mph9.3 kmh 30.17 in1021.7 mb 0.00 in0.0 mm 0.00 in0.0 mm 0.00 in0.0 mm
05:33 AM 55.4°F13.0°C 49.6°F9.8°C 81% 1.6 mph SE2.6 kmh SE 6.3 mph10.1 kmh 30.17 in1021.7 mb 0.00 in0.0 mm 0.00 in0.0 mm 0.00 in0.0 mm
05:36 AM 55.4°F13.0°C 49.6°F9.8°C 81% 1.1 mph NE1.8 kmh NE 3.6 mph5.8 kmh 30.17 in1021.7 mb 0.00 in0.0 mm 0.00 in0.0 mm 0.00 in0.0 mm
05:38 AM 55.4°F13.0°C 49.6°F9.8°C 81% 1.1 mph NE1.8 kmh NE 4.0 mph6.4 kmh 30.17 in1021.7 mb 0.00 in0.0 mm 0.00 in0.0 mm 0.00 in0.0 mm
05:40 AM 55.4°F13.0°C 49.6°F9.8°C 81% 1.1 mph E1.8 kmh E 2.7 mph4.3 kmh 30.17 in1021.7 mb 0.00 in0.0 mm 0.00 in0.0 mm 0.00 in0.0 mm
05:42 AM 55.4°F13.0°C 49.6°F9.8°C 81% 0.7 mph SE1.1 kmh SE -- 30.16 in1021.3 mb 0.00 in0.0 mm 0.00 in0.0 mm 0.00 in0.0 mm
05:44 AM 55.2°F12.9°C 49.5°F9.7°C 81% 0.7 mph E1.1 kmh E 1.1 mph1.8 kmh 30.16 in1021.3 mb 0.00 in0.0 mm 0.00 in0.0 mm 0.00 in0.0 mm
05:46 AM 55.2°F12.9°C 49.5°F9.7°C 81% 0.4 mph E0.6 kmh E 1.6 mph2.6 kmh 30.16 in1021.3 mb 0.00 in0.0 mm 0.00 in0.0 mm 0.00 in0.0 mm
05:48 AM 55.2°F12.9°C 49.5°F9.7°C 81% 0.4 mph ENE0.6 kmh ENE 1.3 mph2.1 kmh 30.17 in1021.7 mb 0.00 in0.0 mm 0.00 in0.0 mm 0.00 in0.0 mm
05:51 AM 55.2°F12.9°C 49.5°F9.7°C 81% 0.2 mph 0.3 kmh -- 30.16 in1021.3 mb 0.00 in0.0 mm 0.00 in0.0 mm 0.00 in0.0 mm
05:53 AM 55.0°F12.8°C 48.9°F9.4°C 80% 0.2 mph 0.3 kmh 2.0 mph3.2 kmh 30.16 in1021.3 mb 0.00 in0.0 mm 0.00 in0.0 mm 0.00 in0.0 mm
05:55 AM 55.0°F12.8°C 48.9°F9.4°C 80% 0.2 mph ESE0.3 kmh ESE -- 30.17 in1021.7 mb 0.00 in0.0 mm 0.00 in0.0 mm 0.00 in0.0 mm
05:57 AM 54.9°F12.7°C 49.1°F9.5°C 81% 0.4 mph SE0.6 kmh SE 2.0 mph3.2 kmh 30.17 in1021.7 mb 0.00 in0.0 mm 0.00 in0.0 mm 0.00 in0.0 mm
05:59 AM 55.0°F12.8°C 49.3°F9.6°C 81% 1.1 mph NE1.8 kmh NE 4.7 mph7.6 kmh 30.17 in1021.7 mb 0.00 in0.0 mm 0.00 in0.0 mm 0.00 in0.0 mm
06:01 AM 55.0°F12.8°C 49.3°F9.6°C 81% 1.6 mph NNE2.6 kmh NNE 2.5 mph4.0 kmh 30.17 in1021.7 mb 0.00 in0.0 mm 0.00 in0.0 mm 0.00 in0.0 mm
06:04 AM 55.0°F12.8°C 49.3°F9.6°C 81% 0.9 mph SSW1.4 kmh SSW 2.5 mph4.0 kmh 30.17 in1021.7 mb 0.00 in0.0 mm 0.00 in0.0 mm 0.00 in0.0 mm
06:06 AM 55.0°F12.8°C 49.3°F9.6°C 81% 0.4 mph NW0.6 kmh NW 0.9 mph1.4 kmh 30.17 in1021.7 mb 0.00 in0.0 mm 0.00 in0.0 mm 0.00 in0.0 mm
06:08 AM 55.0°F12.8°C 49.3°F9.6°C 81% 0.4 mph SSE0.6 kmh SSE 0.9 mph1.4 kmh 30.17 in1021.7 mb 0.00 in0.0 mm 0.00 in0.0 mm 0.00 in0.0 mm
06:10 AM 54.9°F12.7°C 49.1°F9.5°C 81% 0.7 mph 1.1 kmh 2.7 mph4.3 kmh 30.17 in1021.7 mb 0.00 in0.0 mm 0.00 in0.0 mm 0.00 in0.0 mm
06:13 AM 54.9°F12.7°C 49.1°F9.5°C 81% 0.4 mph 0.6 kmh -- 30.17 in1021.7 mb 0.00 in0.0 mm 0.00 in0.0 mm 0.00 in0.0 mm
06:15 AM 54.9°F12.7°C 49.1°F9.5°C 81% 0.4 mph 0.6 kmh 1.6 mph2.6 kmh 30.17 in1021.7 mb 0.00 in0.0 mm 0.00 in0.0 mm 0.00 in0.0 mm
06:17 AM 54.9°F12.7°C 49.1°F9.5°C 81% 0.4 mph NE0.6 kmh NE 1.8 mph2.9 kmh 30.17 in1021.7 mb 0.00 in0.0 mm 0.00 in0.0 mm 0.00 in0.0 mm
06:19 AM 54.7°F12.6°C 48.9°F9.4°C 81% 0.4 mph E0.6 kmh E 2.2 mph3.5 kmh 30.17 in1021.7 mb 0.00 in0.0 mm 0.00 in0.0 mm 0.00 in0.0 mm
06:22 AM 54.7°F12.6°C 48.9°F9.4°C 81% 0.7 mph ENE1.1 kmh ENE 1.6 mph2.6 kmh 30.17 in1021.7 mb 0.00 in0.0 mm 0.00 in0.0 mm 0.00 in0.0 mm
06:24 AM 54.7°F12.6°C 48.9°F9.4°C 81% 0.4 mph ENE0.6 kmh ENE -- 30.18 in1022.0 mb 0.00 in0.0 mm 0.00 in0.0 mm 0.00 in0.0 mm
06:26 AM 54.5°F12.5°C 48.7°F9.3°C 81% 0.4 mph SE0.6 kmh SE 1.6 mph2.6 kmh 30.17 in1021.7 mb 0.00 in0.0 mm 0.00 in0.0 mm 0.00 in0.0 mm
06:28 AM 54.7°F12.6°C 48.9°F9.4°C 81% 0.4 mph E0.6 kmh E 1.3 mph2.1 kmh 30.17 in1021.7 mb 0.00 in0.0 mm 0.00 in0.0 mm 0.00 in0.0 mm
06:30 AM 54.7°F12.6°C 48.9°F9.4°C 81% 1.1 mph SE1.8 kmh SE 3.4 mph5.5 kmh 30.18 in1022.0 mb 0.00 in0.0 mm 0.00 in0.0 mm 0.00 in0.0 mm
06:33 AM 54.5°F12.5°C 48.7°F9.3°C 81% 0.9 mph ESE1.4 kmh ESE 1.3 mph2.1 kmh 30.18 in1022.0 mb 0.00 in0.0 mm 0.00 in0.0 mm 0.00 in0.0 mm
06:35 AM 54.5°F12.5°C 48.7°F9.3°C 81% 0.7 mph NE1.1 kmh NE 1.1 mph1.8 kmh 30.18 in1022.0 mb 0.00 in0.0 mm 0.00 in0.0 mm 0.00 in0.0 mm
06:37 AM 54.5°F12.5°C 48.7°F9.3°C 81% 1.6 mph SE2.6 kmh SE 3.6 mph5.8 kmh 30.18 in1022.0 mb 0.00 in0.0 mm 0.00 in0.0 mm 0.00 in0.0 mm
06:39 AM 54.5°F12.5°C 48.7°F9.3°C 81% 1.3 mph ENE2.1 kmh ENE 2.9 mph4.7 kmh 30.17 in1021.7 mb 0.00 in0.0 mm 0.00 in0.0 mm 0.00 in0.0 mm
06:41 AM 54.7°F12.6°C 48.9°F9.4°C 81% 1.3 mph E2.1 kmh E 3.4 mph5.5 kmh 30.18 in1022.0 mb 0.00 in0.0 mm 0.00 in0.0 mm 0.00 in0.0 mm
06:44 AM 54.5°F12.5°C 48.7°F9.3°C 81% 1.6 mph E2.6 kmh E 2.7 mph4.3 kmh 30.18 in1022.0 mb 0.00 in0.0 mm 0.00 in0.0 mm 0.00 in0.0 mm
06:46 AM 54.7°F12.6°C 48.9°F9.4°C 81% 2.5 mph ENE4.0 kmh ENE 5.6 mph9.0 kmh 30.18 in1022.0 mb 0.00 in0.0 mm 0.00 in0.0 mm 0.00 in0.0 mm
06:48 AM 54.5°F12.5°C 48.7°F9.3°C 81% 2.0 mph ESE3.2 kmh ESE 2.7 mph4.3 kmh 30.18 in1022.0 mb 0.00 in0.0 mm 0.00 in0.0 mm 0.00 in0.0 mm
06:50 AM 54.5°F12.5°C 48.7°F9.3°C 81% 1.8 mph E2.9 kmh E 2.7 mph4.3 kmh 30.18 in1022.0 mb 0.00 in0.0 mm 0.00 in0.0 mm 0.00 in0.0 mm
06:53 AM 54.5°F12.5°C 48.7°F9.3°C 81% 1.8 mph ESE2.9 kmh ESE 2.7 mph4.3 kmh 30.18 in1022.0 mb 0.00 in0.0 mm 0.00 in0.0 mm 0.00 in0.0 mm
06:55 AM 54.5°F12.5°C 48.7°F9.3°C 81% 1.8 mph E2.9 kmh E 3.6 mph5.8 kmh 30.18 in1022.0 mb 0.00 in0.0 mm 0.00 in0.0 mm 0.00 in0.0 mm
06:57 AM 54.7°F12.6°C 48.9°F9.4°C 81% 2.9 mph ESE4.7 kmh ESE 5.6 mph9.0 kmh 30.18 in1022.0 mb 0.00 in0.0 mm 0.00 in0.0 mm 0.00 in0.0 mm
06:59 AM 54.7°F12.6°C 48.9°F9.4°C 81% 2.9 mph ESE4.7 kmh ESE 3.8 mph6.1 kmh 30.18 in1022.0 mb 0.00 in0.0 mm 0.00 in0.0 mm 0.00 in0.0 mm
07:01 AM 54.7°F12.6°C 48.9°F9.4°C 81% 2.9 mph ESE4.7 kmh ESE 3.6 mph5.8 kmh 30.19 in1022.4 mb 0.00 in0.0 mm 0.00 in0.0 mm 0.00 in0.0 mm
07:04 AM 54.7°F12.6°C 48.9°F9.4°C 81% 3.1 mph SE5.0 kmh SE 4.9 mph7.9 kmh 30.19 in1022.4 mb 0.00 in0.0 mm 0.00 in0.0 mm 0.00 in0.0 mm
07:06 AM 54.7°F12.6°C 48.9°F9.4°C 81% 3.1 mph ESE5.0 kmh ESE 5.1 mph8.2 kmh 30.18 in1022.0 mb 0.00 in0.0 mm 0.00 in0.0 mm 0.00 in0.0 mm
07:08 AM 54.5°F12.5°C 48.7°F9.3°C 81% 2.7 mph ENE4.3 kmh ENE 5.4 mph8.7 kmh 30.19 in1022.4 mb 0.00 in0.0 mm 0.00 in0.0 mm 0.00 in0.0 mm
07:10 AM 54.5°F12.5°C 48.7°F9.3°C 81% 2.9 mph SSE4.7 kmh SSE 4.0 mph6.4 kmh 30.19 in1022.4 mb 0.00 in0.0 mm 0.00 in0.0 mm 0.00 in0.0 mm
07:12 AM 54.5°F12.5°C 48.7°F9.3°C 81% 3.1 mph E5.0 kmh E 6.5 mph10.5 kmh 30.19 in1022.4 mb 0.00 in0.0 mm 0.00 in0.0 mm 0.00 in0.0 mm
07:15 AM 54.5°F12.5°C 48.7°F9.3°C 81% 2.9 mph ESE4.7 kmh ESE 6.7 mph10.8 kmh 30.19 in1022.4 mb 0.00 in0.0 mm 0.00 in0.0 mm 0.00 in0.0 mm
07:17 AM 54.3°F12.4°C 48.6°F9.2°C 81% 3.1 mph E5.0 kmh E 4.5 mph7.2 kmh 30.19 in1022.4 mb 0.00 in0.0 mm 0.00 in0.0 mm 0.00 in0.0 mm
07:19 AM 54.3°F12.4°C 48.6°F9.2°C 81% 2.0 mph ESE3.2 kmh ESE 2.5 mph4.0 kmh 30.20 in1022.7 mb 0.00 in0.0 mm 0.00 in0.0 mm 0.00 in0.0 mm
07:21 AM 54.3°F12.4°C 48.6°F9.2°C 81% 2.2 mph ESE3.5 kmh ESE 9.2 mph14.8 kmh 30.19 in1022.4 mb 0.00 in0.0 mm 0.00 in0.0 mm 0.00 in0.0 mm
07:24 AM 54.3°F12.4°C 48.6°F9.2°C 81% 2.9 mph SSE4.7 kmh SSE 4.7 mph7.6 kmh 30.20 in1022.7 mb 0.00 in0.0 mm 0.00 in0.0 mm 0.00 in0.0 mm
07:26 AM 54.3°F12.4°C 48.6°F9.2°C 81% 2.0 mph E3.2 kmh E 3.8 mph6.1 kmh 30.19 in1022.4 mb 0.00 in0.0 mm 0.00 in0.0 mm 0.00 in0.0 mm
07:28 AM 54.3°F12.4°C 48.6°F9.2°C 81% 1.1 mph NE1.8 kmh NE -- 30.20 in1022.7 mb 0.00 in0.0 mm 0.00 in0.0 mm 0.00 in0.0 mm
07:30 AM 54.3°F12.4°C 48.6°F9.2°C 81% 2.0 mph ESE3.2 kmh ESE 4.0 mph6.4 kmh 30.20 in1022.7 mb 0.00 in0.0 mm 0.00 in0.0 mm 0.00 in0.0 mm
07:32 AM 54.1°F12.3°C 48.4°F9.1°C 81% 1.3 mph SSE2.1 kmh SSE 2.2 mph3.5 kmh 30.20 in1022.7 mb 0.00 in0.0 mm 0.00 in0.0 mm 0.00 in0.0 mm
07:35 AM 54.1°F12.3°C 48.4°F9.1°C 81% 1.6 mph ENE2.6 kmh ENE 4.5 mph7.2 kmh 30.20 in1022.7 mb 0.00 in0.0 mm 0.00 in0.0 mm 0.00 in0.0 mm
07:37 AM 54.1°F12.3°C 48.4°F9.1°C 81% 0.9 mph E1.4 kmh E 1.3 mph2.1 kmh 30.20 in1022.7 mb 0.00 in0.0 mm 0.00 in0.0 mm 0.00 in0.0 mm
07:39 AM 54.1°F12.3°C 48.4°F9.1°C 81% 0.4 mph ESE0.6 kmh ESE -- 30.20 in1022.7 mb 0.00 in0.0 mm 0.00 in0.0 mm 0.00 in0.0 mm
07:42 AM 54.0°F12.2°C 48.6°F9.2°C 82% 0.4 mph E0.6 kmh E 0.9 mph1.4 kmh 30.20 in1022.7 mb 0.00 in0.0 mm 0.00 in0.0 mm 0.00 in0.0 mm
07:44 AM 54.0°F12.2°C 48.6°F9.2°C 82% 0.4 mph ENE0.6 kmh ENE 2.2 mph3.5 kmh 30.21 in1023.0 mb 0.00 in0.0 mm 0.00 in0.0 mm 0.00 in0.0 mm
07:46 AM 54.0°F12.2°C 48.6°F9.2°C 82% 0.9 mph NE1.4 kmh NE 2.7 mph4.3 kmh 30.21 in1023.0 mb 0.00 in0.0 mm 0.00 in0.0 mm 0.00 in0.0 mm
07:48 AM 54.1°F12.3°C 48.7°F9.3°C 82% 1.8 mph ESE2.9 kmh ESE 4.7 mph7.6 kmh 30.21 in1023.0 mb 0.00 in0.0 mm 0.00 in0.0 mm 0.00 in0.0 mm
07:50 AM 54.3°F12.4°C 48.9°F9.4°C 82% 2.5 mph E4.0 kmh E 5.4 mph8.7 kmh 30.21 in1023.0 mb 0.00 in0.0 mm 0.00 in0.0 mm 0.00 in0.0 mm
07:53 AM 54.5°F12.5°C 49.1°F9.5°C 82% 2.2 mph ESE3.5 kmh ESE 4.0 mph6.4 kmh 30.21 in1023.0 mb 0.00 in0.0 mm 0.00 in0.0 mm 0.00 in0.0 mm
07:55 AM 54.7°F12.6°C 49.3°F9.6°C 82% 2.0 mph E3.2 kmh E 4.0 mph6.4 kmh 30.21 in1023.0 mb 0.00 in0.0 mm 0.00 in0.0 mm 0.00 in0.0 mm
07:57 AM 54.9°F12.7°C 49.5°F9.7°C 82% 2.2 mph NNE3.5 kmh NNE 3.6 mph5.8 kmh 30.21 in1023.0 mb 0.00 in0.0 mm 0.00 in0.0 mm 0.00 in0.0 mm
07:59 AM 55.0°F12.8°C 49.6°F9.8°C 82% 3.6 mph ENE5.8 kmh ENE 6.3 mph10.1 kmh 30.21 in1023.0 mb 0.00 in0.0 mm 0.00 in0.0 mm 0.00 in0.0 mm
08:01 AM 55.0°F12.8°C 49.6°F9.8°C 82% 2.5 mph ESE4.0 kmh ESE 2.5 mph4.0 kmh 30.21 in1023.0 mb 0.00 in0.0 mm 0.00 in0.0 mm 0.00 in0.0 mm
08:04 AM 55.0°F12.8°C 49.3°F9.6°C 81% 2.7 mph E4.3 kmh E 4.9 mph7.9 kmh 30.21 in1023.0 mb 0.00 in0.0 mm 0.00 in0.0 mm 0.00 in0.0 mm
08:06 AM 55.2°F12.9°C 49.5°F9.7°C 81% 2.5 mph SE4.0 kmh SE 4.7 mph7.6 kmh 30.21 in1023.0 mb 0.00 in0.0 mm 0.00 in0.0 mm 0.00 in0.0 mm
08:08 AM 55.2°F12.9°C 49.5°F9.7°C 81% 2.9 mph ENE4.7 kmh ENE 5.4 mph8.7 kmh 30.21 in1023.0 mb 0.00 in0.0 mm 0.00 in0.0 mm 0.00 in0.0 mm
08:10 AM 55.4°F13.0°C 49.6°F9.8°C 81% 2.9 mph ENE4.7 kmh ENE 4.0 mph6.4 kmh 30.21 in1023.0 mb 0.00 in0.0 mm 0.00 in0.0 mm 0.00 in0.0 mm
08:13 AM 55.6°F13.1°C 49.8°F9.9°C 81% 3.6 mph E5.8 kmh E 6.5 mph10.5 kmh 30.21 in1023.0 mb 0.00 in0.0 mm 0.00 in0.0 mm 0.00 in0.0 mm
08:15 AM 55.9°F13.3°C 50.2°F10.1°C 81% 2.7 mph E4.3 kmh E 3.1 mph5.0 kmh 30.21 in1023.0 mb 0.00 in0.0 mm 0.00 in0.0 mm 0.00 in0.0 mm
08:17 AM 56.3°F13.5°C 50.5°F10.3°C 81% 3.6 mph ESE5.8 kmh ESE 7.8 mph12.6 kmh 30.22 in1023.4 mb 0.00 in0.0 mm 0.00 in0.0 mm 0.00 in0.0 mm
08:20 AM 56.5°F13.6°C 50.7°F10.4°C 81% 2.5 mph NE4.0 kmh NE 5.8 mph9.3 kmh 30.22 in1023.4 mb 0.00 in0.0 mm 0.00 in0.0 mm 0.00 in0.0 mm
08:22 AM 56.5°F13.6°C 50.4°F10.2°C 80% 2.0 mph ENE3.2 kmh ENE 3.6 mph5.8 kmh 30.22 in1023.4 mb 0.00 in0.0 mm 0.00 in0.0 mm 0.00 in0.0 mm
08:24 AM 56.8°F13.8°C 50.7°F10.4°C 80% 3.6 mph E5.8 kmh E 6.9 mph11.1 kmh 30.22 in1023.4 mb 0.00 in0.0 mm 0.00 in0.0 mm 0.00 in0.0 mm
08:26 AM 57.0°F13.9°C 50.9°F10.5°C 80% 3.4 mph ENE5.5 kmh ENE 6.0 mph9.7 kmh 30.22 in1023.4 mb 0.00 in0.0 mm 0.00 in0.0 mm 0.00 in0.0 mm
08:28 AM 57.2°F14.0°C 51.1°F10.6°C 80% 2.2 mph ESE3.5 kmh ESE 2.9 mph4.7 kmh 30.22 in1023.4 mb 0.00 in0.0 mm 0.00 in0.0 mm 0.00 in0.0 mm
08:30 AM 57.4°F14.1°C 51.3°F10.7°C 80% 2.9 mph ENE4.7 kmh ENE 7.4 mph11.9 kmh 30.22 in1023.4 mb 0.00 in0.0 mm 0.00 in0.0 mm 0.00 in0.0 mm
08:33 AM 57.6°F14.2°C 51.1°F10.6°C 79% 3.6 mph ESE5.8 kmh ESE 5.4 mph8.7 kmh 30.22 in1023.4 mb 0.00 in0.0 mm 0.00 in0.0 mm 0.00 in0.0 mm
08:35 AM 57.7°F14.3°C 51.3°F10.7°C 79% 4.3 mph E6.9 kmh E 6.9 mph11.1 kmh 30.22 in1023.4 mb 0.00 in0.0 mm 0.00 in0.0 mm 0.00 in0.0 mm
08:37 AM 57.7°F14.3°C 50.9°F10.5°C 78% 3.1 mph ESE5.0 kmh ESE 6.7 mph10.8 kmh 30.22 in1023.4 mb 0.00 in0.0 mm 0.00 in0.0 mm 0.00 in0.0 mm
08:39 AM 57.9°F14.4°C 51.1°F10.6°C 78% 3.8 mph E6.1 kmh E 6.9 mph11.1 kmh 30.23 in1023.7 mb 0.00 in0.0 mm 0.00 in0.0 mm 0.00 in0.0 mm
08:41 AM 57.9°F14.4°C 51.1°F10.6°C 78% 2.9 mph E4.7 kmh E 2.7 mph4.3 kmh 30.22 in1023.4 mb 0.00 in0.0 mm 0.00 in0.0 mm 0.00 in0.0 mm
08:43 AM 57.9°F14.4°C 50.7°F10.4°C 77% 3.6 mph SSE5.8 kmh SSE 6.0 mph9.7 kmh 30.22 in1023.4 mb 0.00 in0.0 mm 0.00 in0.0 mm 0.00 in0.0 mm
08:46 AM 57.9°F14.4°C 50.7°F10.4°C 77% 3.4 mph SE5.5 kmh SE 4.7 mph7.6 kmh 30.22 in1023.4 mb 0.00 in0.0 mm 0.00 in0.0 mm 0.00 in0.0 mm
08:48 AM 58.1°F14.5°C 50.9°F10.5°C 77% 3.8 mph ESE6.1 kmh ESE 7.4 mph11.9 kmh 30.22 in1023.4 mb 0.00 in0.0 mm 0.00 in0.0 mm 0.00 in0.0 mm
08:50 AM 57.9°F14.4°C 50.4°F10.2°C 76% 3.8 mph ENE6.1 kmh ENE 7.8 mph12.6 kmh 30.22 in1023.4 mb 0.00 in0.0 mm 0.00 in0.0 mm 0.00 in0.0 mm
08:52 AM 58.1°F14.5°C 50.5°F10.3°C 76% 4.7 mph NNE7.6 kmh NNE 7.2 mph11.6 kmh 30.22 in1023.4 mb 0.00 in0.0 mm 0.00 in0.0 mm 0.00 in0.0 mm
08:54 AM 58.1°F14.5°C 50.5°F10.3°C 76% 4.7 mph ESE7.6 kmh ESE 6.9 mph11.1 kmh 30.23 in1023.7 mb 0.00 in0.0 mm 0.00 in0.0 mm 0.00 in0.0 mm
08:57 AM 58.3°F14.6°C 50.7°F10.4°C 76% 4.7 mph E7.6 kmh E 6.7 mph10.8 kmh 30.23 in1023.7 mb 0.00 in0.0 mm 0.00 in0.0 mm 0.00 in0.0 mm
08:59 AM 58.3°F14.6°C 50.4°F10.2°C 75% 4.5 mph ENE7.2 kmh ENE 6.0 mph9.7 kmh 30.22 in1023.4 mb 0.00 in0.0 mm 0.00 in0.0 mm 0.00 in0.0 mm
09:01 AM 58.3°F14.6°C 50.4°F10.2°C 75% 4.0 mph E6.4 kmh E 6.7 mph10.8 kmh 30.22 in1023.4 mb 0.00 in0.0 mm 0.00 in0.0 mm 0.00 in0.0 mm
09:03 AM 58.5°F14.7°C 50.5°F10.3°C 75% 4.7 mph E7.6 kmh E 8.3 mph13.4 kmh 30.22 in1023.4 mb 0.00 in0.0 mm 0.00 in0.0 mm 0.00 in0.0 mm
09:05 AM 58.6°F14.8°C 50.7°F10.4°C 75% 4.9 mph E7.9 kmh E 7.4 mph11.9 kmh 30.22 in1023.4 mb 0.00 in0.0 mm 0.00 in0.0 mm 0.00 in0.0 mm
09:07 AM 58.6°F14.8°C 50.7°F10.4°C 75% 4.3 mph SE6.9 kmh SE 5.1 mph8.2 kmh 30.22 in1023.4 mb 0.00 in0.0 mm 0.00 in0.0 mm 0.00 in0.0 mm
09:10 AM 58.8°F14.9°C 50.9°F10.5°C 75% 4.5 mph SSE7.2 kmh SSE 6.5 mph10.5 kmh 30.22 in1023.4 mb 0.00 in0.0 mm 0.00 in0.0 mm 0.00 in0.0 mm
09:12 AM 58.8°F14.9°C 50.5°F10.3°C 74% 3.8 mph SE6.1 kmh SE 5.6 mph9.0 kmh 30.22 in1023.4 mb 0.00 in0.0 mm 0.00 in0.0 mm 0.00 in0.0 mm
09:14 AM 58.8°F14.9°C 50.5°F10.3°C 74% 4.0 mph E6.4 kmh E 6.5 mph10.5 kmh 30.22 in1023.4 mb 0.00 in0.0 mm 0.00 in0.0 mm 0.00 in0.0 mm
09:16 AM 59.0°F15.0°C 50.7°F10.4°C 74% 5.1 mph ESE8.2 kmh ESE 8.9 mph14.3 kmh 30.22 in1023.4 mb 0.00 in0.0 mm 0.00 in0.0 mm 0.00 in0.0 mm
09:19 AM 59.0°F15.0°C 50.4°F10.2°C 73% 6.0 mph E9.7 kmh E 8.9 mph14.3 kmh 30.22 in1023.4 mb 0.00 in0.0 mm 0.00 in0.0 mm 0.00 in0.0 mm
09:21 AM 59.2°F15.1°C 50.5°F10.3°C 73% 4.7 mph ENE7.6 kmh ENE 3.8 mph6.1 kmh 30.22 in1023.4 mb 0.00 in0.0 mm 0.00 in0.0 mm 0.00 in0.0 mm
09:23 AM 59.5°F15.3°C 50.9°F10.5°C 73% 4.9 mph E7.9 kmh E 8.7 mph14.0 kmh 30.22 in1023.4 mb 0.00 in0.0 mm 0.00 in0.0 mm 0.00 in0.0 mm
09:25 AM 59.7°F15.4°C 51.1°F10.6°C 73% 4.0 mph E6.4 kmh E 4.7 mph7.6 kmh 30.23 in1023.7 mb 0.00 in0.0 mm 0.00 in0.0 mm 0.00 in0.0 mm
09:28 AM 59.7°F15.4°C 51.1°F10.6°C 73% 4.5 mph SE7.2 kmh SE 6.7 mph10.8 kmh 30.22 in1023.4 mb 0.00 in0.0 mm 0.00 in0.0 mm 0.00 in0.0 mm
09:30 AM 59.9°F15.5°C 50.9°F10.5°C 72% 3.8 mph E6.1 kmh E 5.1 mph8.2 kmh 30.22 in1023.4 mb 0.00 in0.0 mm 0.00 in0.0 mm 0.00 in0.0 mm
09:32 AM 60.1°F15.6°C 51.1°F10.6°C 72% 2.9 mph E4.7 kmh E 3.6 mph5.8 kmh 30.22 in1023.4 mb 0.00 in0.0 mm 0.00 in0.0 mm 0.00 in0.0 mm
09:34 AM 60.3°F15.7°C 51.3°F10.7°C 72% 3.4 mph NE5.5 kmh NE 7.4 mph11.9 kmh 30.22 in1023.4 mb 0.00 in0.0 mm 0.00 in0.0 mm 0.00 in0.0 mm
09:36 AM 60.4°F15.8°C 51.4°F10.8°C 72% 4.0 mph E6.4 kmh E 6.3 mph10.1 kmh 30.22 in1023.4 mb 0.00 in0.0 mm 0.00 in0.0 mm 0.00 in0.0 mm
09:39 AM 60.4°F15.8°C 51.1°F10.6°C 71% 3.1 mph WSW5.0 kmh WSW 10.7 mph17.2 kmh 30.23 in1023.7 mb 0.00 in0.0 mm 0.00 in0.0 mm 0.00 in0.0 mm
09:41 AM 60.6°F15.9°C 51.1°F10.6°C 71% 2.7 mph E4.3 kmh E 4.7 mph7.6 kmh 30.22 in1023.4 mb 0.00 in0.0 mm 0.00 in0.0 mm 0.00 in0.0 mm
09:43 AM 60.6°F15.9°C 50.7°F10.4°C 70% 4.3 mph NE6.9 kmh NE 10.5 mph16.9 kmh 30.22 in1023.4 mb 0.00 in0.0 mm 0.00 in0.0 mm 0.00 in0.0 mm
09:45 AM 60.6°F15.9°C 50.7°F10.4°C 70% 3.8 mph ESE6.1 kmh ESE 6.7 mph10.8 kmh 30.22 in1023.4 mb 0.00 in0.0 mm 0.00 in0.0 mm 0.00 in0.0 mm
09:47 AM 60.6°F15.9°C 50.4°F10.2°C 69% 4.3 mph ENE6.9 kmh ENE 8.5 mph13.7 kmh 30.22 in1023.4 mb 0.00 in0.0 mm 0.00 in0.0 mm 0.00 in0.0 mm
09:50 AM 60.6°F15.9°C 50.4°F10.2°C 69% 3.4 mph NE5.5 kmh NE 7.2 mph11.6 kmh 30.23 in1023.7 mb 0.00 in0.0 mm 0.00 in0.0 mm 0.00 in0.0 mm
09:52 AM 61.0°F16.1°C 50.7°F10.4°C 69% 2.9 mph SE4.7 kmh SE 5.8 mph9.3 kmh 30.23 in1023.7 mb 0.00 in0.0 mm 0.00 in0.0 mm 0.00 in0.0 mm
09:54 AM 61.2°F16.2°C 50.5°F10.3°C 68% 2.9 mph ENE4.7 kmh ENE 6.5 mph10.5 kmh 30.23 in1023.7 mb 0.00 in0.0 mm 0.00 in0.0 mm 0.00 in0.0 mm
09:56 AM 61.2°F16.2°C 50.5°F10.3°C 68% 3.6 mph SSW5.8 kmh SSW 12.3 mph19.8 kmh 30.22 in1023.4 mb 0.00 in0.0 mm 0.00 in0.0 mm 0.00 in0.0 mm
09:58 AM 61.0°F16.1°C 50.0°F10.0°C 67% 4.5 mph NE7.2 kmh NE 13.6 mph21.9 kmh 30.22 in1023.4 mb 0.00 in0.0 mm 0.00 in0.0 mm 0.00 in0.0 mm
10:00 AM 61.0°F16.1°C 50.0°F10.0°C 67% 4.0 mph ESE6.4 kmh ESE 8.1 mph13.0 kmh 30.22 in1023.4 mb 0.00 in0.0 mm 0.00 in0.0 mm 0.00 in0.0 mm
10:03 AM 61.0°F16.1°C 50.0°F10.0°C 67% 4.3 mph ESE6.9 kmh ESE 7.6 mph12.2 kmh 30.22 in1023.4 mb 0.00 in0.0 mm 0.00 in0.0 mm 0.00 in0.0 mm
10:05 AM 61.0°F16.1°C 50.0°F10.0°C 67% 2.7 mph ENE4.3 kmh ENE 4.9 mph7.9 kmh 30.22 in1023.4 mb 0.00 in0.0 mm 0.00 in0.0 mm 0.00 in0.0 mm
10:07 AM 61.3°F16.3°C 50.4°F10.2°C 67% 2.7 mph SSE4.3 kmh SSE 6.7 mph10.8 kmh 30.22 in1023.4 mb 0.00 in0.0 mm 0.00 in0.0 mm 0.00 in0.0 mm
10:09 AM 61.3°F16.3°C 50.4°F10.2°C 67% 4.3 mph NNE6.9 kmh NNE 9.8 mph15.8 kmh 30.22 in1023.4 mb 0.00 in0.0 mm 0.00 in0.0 mm 0.00 in0.0 mm
10:12 AM 61.3°F16.3°C 50.4°F10.2°C 67% 4.5 mph SE7.2 kmh SE 10.1 mph16.3 kmh 30.22 in1023.4 mb 0.00 in0.0 mm 0.00 in0.0 mm 0.00 in0.0 mm
10:14 AM 61.2°F16.2°C 50.2°F10.1°C 67% 3.6 mph NE5.8 kmh NE 5.1 mph8.2 kmh 30.22 in1023.4 mb 0.00 in0.0 mm 0.00 in0.0 mm 0.00 in0.0 mm
10:16 AM 61.5°F16.4°C 50.5°F10.3°C 67% 2.5 mph ENE4.0 kmh ENE 2.9 mph4.7 kmh 30.22 in1023.4 mb 0.00 in0.0 mm 0.00 in0.0 mm 0.00 in0.0 mm
10:18 AM 61.7°F16.5°C 50.7°F10.4°C 67% 3.4 mph E5.5 kmh E 7.6 mph12.2 kmh 30.22 in1023.4 mb 0.00 in0.0 mm 0.00 in0.0 mm 0.00 in0.0 mm
10:21 AM 61.9°F16.6°C 50.7°F10.4°C 67% 3.6 mph NNE5.8 kmh NNE 5.6 mph9.0 kmh 30.23 in1023.7 mb 0.00 in0.0 mm 0.00 in0.0 mm 0.00 in0.0 mm
10:23 AM 61.5°F16.4°C 50.5°F10.3°C 67% 3.6 mph ENE5.8 kmh ENE 8.3 mph13.4 kmh 30.22 in1023.4 mb 0.00 in0.0 mm 0.00 in0.0 mm 0.00 in0.0 mm
10:25 AM 61.9°F16.6°C 50.7°F10.4°C 67% 3.6 mph NNE5.8 kmh NNE 6.0 mph9.7 kmh 30.22 in1023.4 mb 0.00 in0.0 mm 0.00 in0.0 mm 0.00 in0.0 mm
10:27 AM 61.9°F16.6°C 50.7°F10.4°C 67% 4.0 mph ESE6.4 kmh ESE 7.2 mph11.6 kmh 30.22 in1023.4 mb 0.00 in0.0 mm 0.00 in0.0 mm 0.00 in0.0 mm
10:29 AM 61.9°F16.6°C 50.4°F10.2°C 66% 5.8 mph E9.3 kmh E 13.2 mph21.2 kmh 30.22 in1023.4 mb 0.00 in0.0 mm 0.00 in0.0 mm 0.00 in0.0 mm
10:31 AM 61.9°F16.6°C 50.4°F10.2°C 66% 6.3 mph ENE10.1 kmh ENE 9.6 mph15.4 kmh 30.22 in1023.4 mb 0.00 in0.0 mm 0.00 in0.0 mm 0.00 in0.0 mm
10:33 AM 61.7°F16.5°C 50.2°F10.1°C 66% 5.4 mph NNE8.7 kmh NNE 10.5 mph16.9 kmh 30.22 in1023.4 mb 0.00 in0.0 mm 0.00 in0.0 mm 0.00 in0.0 mm
10:36 AM 61.7°F16.5°C 50.7°F10.4°C 67% 6.0 mph E9.7 kmh E 9.8 mph15.8 kmh 30.22 in1023.4 mb 0.00 in0.0 mm 0.00 in0.0 mm 0.00 in0.0 mm
10:38 AM 61.7°F16.5°C 50.2°F10.1°C 66% 4.5 mph WNW7.2 kmh WNW 8.7 mph14.0 kmh 30.22 in1023.4 mb 0.00 in0.0 mm 0.00 in0.0 mm 0.00 in0.0 mm
10:40 AM 61.9°F16.6°C 50.4°F10.2°C 66% 3.1 mph ENE5.0 kmh ENE 2.5 mph4.0 kmh 30.22 in1023.4 mb 0.00 in0.0 mm 0.00 in0.0 mm 0.00 in0.0 mm
10:42 AM 62.2°F16.8°C 50.7°F10.4°C 66% 2.5 mph SSE4.0 kmh SSE 5.8 mph9.3 kmh 30.22 in1023.4 mb 0.00 in0.0 mm 0.00 in0.0 mm 0.00 in0.0 mm
10:44 AM 62.2°F16.8°C 50.7°F10.4°C 66% 4.3 mph E6.9 kmh E 10.7 mph17.2 kmh 30.23 in1023.7 mb 0.00 in0.0 mm 0.00 in0.0 mm 0.00 in0.0 mm
10:46 AM 62.4°F16.9°C 50.9°F10.5°C 66% 4.0 mph ESE6.4 kmh ESE 5.8 mph9.3 kmh 30.23 in1023.7 mb 0.00 in0.0 mm 0.00 in0.0 mm 0.00 in0.0 mm
10:49 AM 62.4°F16.9°C 50.9°F10.5°C 66% 3.8 mph NNE6.1 kmh NNE 6.7 mph10.8 kmh 30.23 in1023.7 mb 0.00 in0.0 mm 0.00 in0.0 mm 0.00 in0.0 mm
10:51 AM 62.6°F17.0°C 51.1°F10.6°C 66% 2.9 mph ESE4.7 kmh ESE 4.3 mph6.9 kmh 30.23 in1023.7 mb 0.00 in0.0 mm 0.00 in0.0 mm 0.00 in0.0 mm
10:53 AM 62.8°F17.1°C 50.9°F10.5°C 65% 2.5 mph WNW4.0 kmh WNW 3.1 mph5.0 kmh 30.22 in1023.4 mb 0.00 in0.0 mm 0.00 in0.0 mm 0.00 in0.0 mm
10:55 AM 63.0°F17.2°C 51.1°F10.6°C 65% 1.8 mph NE2.9 kmh NE 2.7 mph4.3 kmh 30.23 in1023.7 mb 0.00 in0.0 mm 0.00 in0.0 mm 0.00 in0.0 mm
10:57 AM 63.3°F17.4°C 51.4°F10.8°C 65% 1.8 mph SSW2.9 kmh SSW 5.4 mph8.7 kmh 30.22 in1023.4 mb 0.00 in0.0 mm 0.00 in0.0 mm 0.00 in0.0 mm
10:59 AM 63.3°F17.4°C 51.4°F10.8°C 65% 2.2 mph NE3.5 kmh NE 7.8 mph12.6 kmh 30.22 in1023.4 mb 0.00 in0.0 mm 0.00 in0.0 mm 0.00 in0.0 mm
11:01 AM 63.1°F17.3°C 50.7°F10.4°C 64% 3.1 mph ENE5.0 kmh ENE 8.5 mph13.7 kmh 30.22 in1023.4 mb 0.00 in0.0 mm 0.00 in0.0 mm 0.00 in0.0 mm
11:04 AM 63.1°F17.3°C 50.7°F10.4°C 64% 2.0 mph W3.2 kmh W 2.5 mph4.0 kmh 30.22 in1023.4 mb 0.00 in0.0 mm 0.00 in0.0 mm 0.00 in0.0 mm
11:06 AM 63.3°F17.4°C 50.9°F10.5°C 64% 2.0 mph NNW3.2 kmh NNW 6.3 mph10.1 kmh 30.21 in1023.0 mb 0.00 in0.0 mm 0.00 in0.0 mm 0.00 in0.0 mm
11:08 AM 63.3°F17.4°C 50.9°F10.5°C 64% 2.0 mph NNW3.2 kmh NNW 5.1 mph8.2 kmh 30.22 in1023.4 mb 0.00 in0.0 mm 0.00 in0.0 mm 0.00 in0.0 mm
11:10 AM 63.3°F17.4°C 50.5°F10.3°C 63% 2.7 mph NE4.3 kmh NE 7.2 mph11.6 kmh 30.22 in1023.4 mb 0.00 in0.0 mm 0.00 in0.0 mm 0.00 in0.0 mm
11:13 AM 63.1°F17.3°C 50.4°F10.2°C 63% 1.8 mph WSW2.9 kmh WSW 2.0 mph3.2 kmh 30.21 in1023.0 mb 0.00 in0.0 mm 0.00 in0.0 mm 0.00 in0.0 mm
11:15 AM 63.3°F17.4°C 50.5°F10.3°C 63% 1.6 mph WNW2.6 kmh WNW 3.4 mph5.5 kmh 30.21 in1023.0 mb 0.00 in0.0 mm 0.00 in0.0 mm 0.00 in0.0 mm
11:17 AM 63.5°F17.5°C 50.7°F10.4°C 63% 1.1 mph ENE1.8 kmh ENE 2.7 mph4.3 kmh 30.21 in1023.0 mb 0.00 in0.0 mm 0.00 in0.0 mm 0.00 in0.0 mm
11:19 AM 64.0°F17.8°C 51.3°F10.7°C 63% 2.2 mph SSE3.5 kmh SSE 10.5 mph16.9 kmh 30.22 in1023.4 mb 0.00 in0.0 mm 0.00 in0.0 mm 0.00 in0.0 mm
11:22 AM 63.7°F17.6°C 50.9°F10.5°C 63% 4.9 mph WSW7.9 kmh WSW 13.9 mph22.4 kmh 30.21 in1023.0 mb 0.00 in0.0 mm 0.00 in0.0 mm 0.00 in0.0 mm
11:24 AM 63.7°F17.6°C 50.9°F10.5°C 63% 4.9 mph NNE7.9 kmh NNE 8.3 mph13.4 kmh 30.21 in1023.0 mb 0.00 in0.0 mm 0.00 in0.0 mm 0.00 in0.0 mm
11:26 AM 63.5°F17.5°C 50.7°F10.4°C 63% 3.6 mph ESE5.8 kmh ESE 3.6 mph5.8 kmh 30.21 in1023.0 mb 0.00 in0.0 mm 0.00 in0.0 mm 0.00 in0.0 mm
11:28 AM 63.7°F17.6°C 50.9°F10.5°C 63% 3.1 mph E5.0 kmh E 7.6 mph12.2 kmh 30.21 in1023.0 mb 0.00 in0.0 mm 0.00 in0.0 mm 0.00 in0.0 mm
11:30 AM 63.7°F17.6°C 50.9°F10.5°C 63% 3.8 mph SE6.1 kmh SE 6.7 mph10.8 kmh 30.22 in1023.4 mb 0.00 in0.0 mm 0.00 in0.0 mm 0.00 in0.0 mm
11:32 AM 63.7°F17.6°C 50.9°F10.5°C 63% 3.1 mph E5.0 kmh E 5.8 mph9.3 kmh 30.22 in1023.4 mb 0.00 in0.0 mm 0.00 in0.0 mm 0.00 in0.0 mm
11:34 AM 63.5°F17.5°C 50.7°F10.4°C 63% 4.3 mph ESE6.9 kmh ESE 11.9 mph19.2 kmh 30.21 in1023.0 mb 0.00 in0.0 mm 0.00 in0.0 mm 0.00 in0.0 mm
11:37 AM 63.5°F17.5°C 50.7°F10.4°C 63% 4.7 mph E7.6 kmh E 13.2 mph21.2 kmh 30.21 in1023.0 mb 0.00 in0.0 mm 0.00 in0.0 mm 0.00 in0.0 mm
11:39 AM 63.5°F17.5°C 50.2°F10.1°C 62% 5.1 mph NE8.2 kmh NE 8.9 mph14.3 kmh 30.22 in1023.4 mb 0.00 in0.0 mm 0.00 in0.0 mm 0.00 in0.0 mm
11:41 AM 63.7°F17.6°C 50.9°F10.5°C 63% 3.8 mph ESE6.1 kmh ESE 6.0 mph9.7 kmh 30.21 in1023.0 mb 0.00 in0.0 mm 0.00 in0.0 mm 0.00 in0.0 mm
11:43 AM 63.7°F17.6°C 50.9°F10.5°C 63% 3.4 mph SE5.5 kmh SE 7.4 mph11.9 kmh 30.21 in1023.0 mb 0.00 in0.0 mm 0.00 in0.0 mm 0.00 in0.0 mm
11:45 AM 63.7°F17.6°C 50.4°F10.2°C 62% 4.3 mph NNW6.9 kmh NNW 7.8 mph12.6 kmh 30.22 in1023.4 mb 0.00 in0.0 mm 0.00 in0.0 mm 0.00 in0.0 mm
11:47 AM 63.7°F17.6°C 50.4°F10.2°C 62% 5.4 mph E8.7 kmh E 10.5 mph16.9 kmh 30.21 in1023.0 mb 0.00 in0.0 mm 0.00 in0.0 mm 0.00 in0.0 mm
11:50 AM 64.0°F17.8°C 50.4°F10.2°C 61% 4.0 mph SE6.4 kmh SE 9.6 mph15.4 kmh 30.21 in1023.0 mb 0.00 in0.0 mm 0.00 in0.0 mm 0.00 in0.0 mm
11:52 AM 64.0°F17.8°C 50.4°F10.2°C 61% 4.7 mph ENE7.6 kmh ENE 7.2 mph11.6 kmh 30.21 in1023.0 mb 0.00 in0.0 mm 0.00 in0.0 mm 0.00 in0.0 mm
11:54 AM 64.0°F17.8°C 50.4°F10.2°C 61% 5.1 mph E8.2 kmh E 9.6 mph15.4 kmh 30.21 in1023.0 mb 0.00 in0.0 mm 0.00 in0.0 mm 0.00 in0.0 mm
11:56 AM 63.9°F17.7°C 49.6°F9.8°C 60% 4.7 mph E7.6 kmh E 8.9 mph14.3 kmh 30.21 in1023.0 mb 0.00 in0.0 mm 0.00 in0.0 mm 0.00 in0.0 mm
11:58 AM 64.0°F17.8°C 50.4°F10.2°C 61% 4.0 mph NE6.4 kmh NE 5.1 mph8.2 kmh 30.21 in1023.0 mb 0.00 in0.0 mm 0.00 in0.0 mm 0.00 in0.0 mm
12:00 PM 64.0°F17.8°C 50.4°F10.2°C 61% 4.5 mph E7.2 kmh E 10.3 mph16.6 kmh 30.21 in1023.0 mb 0.00 in0.0 mm 0.00 in0.0 mm 0.00 in0.0 mm
12:02 PM 64.2°F17.9°C 50.5°F10.3°C 61% 2.5 mph WNW4.0 kmh WNW 3.1 mph5.0 kmh 30.21 in1023.0 mb 0.00 in0.0 mm 0.00 in0.0 mm 0.00 in0.0 mm
12:04 PM 64.6°F18.1°C 50.4°F10.2°C 60% 3.6 mph ESE5.8 kmh ESE 6.7 mph10.8 kmh 30.21 in1023.0 mb 0.00 in0.0 mm 0.00 in0.0 mm 0.00 in0.0 mm
12:07 PM 64.6°F18.1°C 50.0°F10.0°C 59% 2.9 mph E4.7 kmh E 6.0 mph9.7 kmh 30.21 in1023.0 mb 0.00 in0.0 mm 0.00 in0.0 mm 0.00 in0.0 mm
12:09 PM 64.8°F18.2°C 50.5°F10.3°C 60% 2.2 mph NE3.5 kmh NE 7.4 mph11.9 kmh 30.21 in1023.0 mb 0.00 in0.0 mm 0.00 in0.0 mm 0.00 in0.0 mm
12:11 PM 64.9°F18.3°C 50.2°F10.1°C 59% 2.5 mph E4.0 kmh E 5.4 mph8.7 kmh 30.21 in1023.0 mb 0.00 in0.0 mm 0.00 in0.0 mm 0.00 in0.0 mm
12:13 PM 65.1°F18.4°C 50.4°F10.2°C 59% 1.8 mph 2.9 kmh 2.2 mph3.5 kmh 30.21 in1023.0 mb 0.00 in0.0 mm 0.00 in0.0 mm 0.00 in0.0 mm
12:15 PM 65.5°F18.6°C 50.7°F10.4°C 59% 1.1 mph SW1.8 kmh SW 1.1 mph1.8 kmh 30.21 in1023.0 mb 0.00 in0.0 mm 0.00 in0.0 mm 0.00 in0.0 mm
12:17 PM 65.8°F18.8°C 50.7°F10.4°C 58% 1.6 mph NNW2.6 kmh NNW 5.4 mph8.7 kmh 30.21 in1023.0 mb 0.00 in0.0 mm 0.00 in0.0 mm 0.00 in0.0 mm
12:19 PM 65.8°F18.8°C 50.2°F10.1°C 57% 1.1 mph WSW1.8 kmh WSW 2.7 mph4.3 kmh 30.21 in1023.0 mb 0.00 in0.0 mm 0.00 in0.0 mm 0.00 in0.0 mm
12:21 PM 66.0°F18.9°C 50.4°F10.2°C 57% 2.2 mph ESE3.5 kmh ESE 6.0 mph9.7 kmh 30.21 in1023.0 mb 0.00 in0.0 mm 0.00 in0.0 mm 0.00 in0.0 mm
12:23 PM 65.8°F18.8°C 50.2°F10.1°C 57% 3.4 mph SSE5.5 kmh SSE 5.4 mph8.7 kmh 30.21 in1023.0 mb 0.00 in0.0 mm 0.00 in0.0 mm 0.00 in0.0 mm
12:25 PM 65.3°F18.5°C 49.6°F9.8°C 57% 4.3 mph E6.9 kmh E 8.3 mph13.4 kmh 30.21 in1023.0 mb 0.00 in0.0 mm 0.00 in0.0 mm 0.00 in0.0 mm
12:28 PM 65.3°F18.5°C 50.2°F10.1°C 58% 3.4 mph SE5.5 kmh SE 3.8 mph6.1 kmh 30.21 in1023.0 mb 0.00 in0.0 mm 0.00 in0.0 mm 0.00 in0.0 mm
12:30 PM 65.5°F18.6°C 50.4°F10.2°C 58% 2.7 mph ENE4.3 kmh ENE 5.1 mph8.2 kmh 30.21 in1023.0 mb 0.00 in0.0 mm 0.00 in0.0 mm 0.00 in0.0 mm
12:32 PM 65.7°F18.7°C 50.0°F10.0°C 57% 3.6 mph ENE5.8 kmh ENE 8.3 mph13.4 kmh 30.21 in1023.0 mb 0.00 in0.0 mm 0.00 in0.0 mm 0.00 in0.0 mm
12:34 PM 65.7°F18.7°C 50.0°F10.0°C 57% 4.9 mph SSW7.9 kmh SSW 10.5 mph16.9 kmh 30.21 in1023.0 mb 0.00 in0.0 mm 0.00 in0.0 mm 0.00 in0.0 mm
12:36 PM 65.7°F18.7°C 49.5°F9.7°C 56% 2.7 mph 4.3 kmh 2.5 mph4.0 kmh 30.21 in1023.0 mb 0.00 in0.0 mm 0.00 in0.0 mm 0.00 in0.0 mm
12:38 PM 65.7°F18.7°C 49.5°F9.7°C 56% 2.0 mph SE3.2 kmh SE 2.5 mph4.0 kmh 30.21 in1023.0 mb 0.00 in0.0 mm 0.00 in0.0 mm 0.00 in0.0 mm
12:41 PM 66.0°F18.9°C 50.4°F10.2°C 57% 2.2 mph ESE3.5 kmh ESE 6.9 mph11.1 kmh 30.21 in1023.0 mb 0.00 in0.0 mm 0.00 in0.0 mm 0.00 in0.0 mm
12:43 PM 66.0°F18.9°C 49.8°F9.9°C 56% 1.8 mph SE2.9 kmh SE 2.9 mph4.7 kmh 30.20 in1022.7 mb 0.00 in0.0 mm 0.00 in0.0 mm 0.00 in0.0 mm
12:45 PM 66.4°F19.1°C 49.6°F9.8°C 55% 3.4 mph SSE5.5 kmh SSE 11.0 mph17.7 kmh 30.21 in1023.0 mb 0.00 in0.0 mm 0.00 in0.0 mm 0.00 in0.0 mm
12:47 PM 66.0°F18.9°C 49.5°F9.7°C 55% 4.7 mph E7.6 kmh E 7.8 mph12.6 kmh 30.20 in1022.7 mb 0.00 in0.0 mm 0.00 in0.0 mm 0.00 in0.0 mm
12:50 PM 66.0°F18.9°C 49.8°F9.9°C 56% 4.0 mph NE6.4 kmh NE 8.1 mph13.0 kmh 30.20 in1022.7 mb 0.00 in0.0 mm 0.00 in0.0 mm 0.00 in0.0 mm
12:52 PM 66.0°F18.9°C 49.8°F9.9°C 56% 3.6 mph S5.8 kmh S 6.0 mph9.7 kmh 30.20 in1022.7 mb 0.00 in0.0 mm 0.00 in0.0 mm 0.00 in0.0 mm
12:54 PM 66.0°F18.9°C 49.5°F9.7°C 55% 3.6 mph E5.8 kmh E 6.0 mph9.7 kmh 30.21 in1023.0 mb 0.00 in0.0 mm 0.00 in0.0 mm 0.00 in0.0 mm
12:56 PM 66.0°F18.9°C 49.5°F9.7°C 55% 4.5 mph ENE7.2 kmh ENE 8.5 mph13.7 kmh 30.20 in1022.7 mb 0.00 in0.0 mm 0.00 in0.0 mm 0.00 in0.0 mm
12:59 PM 65.8°F18.8°C 49.6°F9.8°C 56% 4.9 mph ENE7.9 kmh ENE 8.1 mph13.0 kmh 30.20 in1022.7 mb 0.00 in0.0 mm 0.00 in0.0 mm 0.00 in0.0 mm
01:01 PM 65.8°F18.8°C 49.6°F9.8°C 56% 5.6 mph ENE9.0 kmh ENE 9.2 mph14.8 kmh 30.20 in1022.7 mb 0.00 in0.0 mm 0.00 in0.0 mm 0.00 in0.0 mm
01:03 PM 65.5°F18.6°C 48.9°F9.4°C 55% 7.4 mph ESE11.9 kmh ESE 10.5 mph16.9 kmh 30.21 in1023.0 mb 0.00 in0.0 mm 0.00 in0.0 mm 0.00 in0.0 mm
01:05 PM 64.9°F18.3°C 48.9°F9.4°C 56% 6.3 mph E10.1 kmh E 8.3 mph13.4 kmh 30.21 in1023.0 mb 0.00 in0.0 mm 0.00 in0.0 mm 0.00 in0.0 mm
01:07 PM 64.6°F18.1°C 48.9°F9.4°C 57% 5.8 mph E9.3 kmh E 8.1 mph13.0 kmh 30.20 in1022.7 mb 0.00 in0.0 mm 0.00 in0.0 mm 0.00 in0.0 mm
01:09 PM 64.4°F18.0°C 48.9°F9.4°C 57% 5.4 mph E8.7 kmh E 7.8 mph12.6 kmh 30.20 in1022.7 mb 0.00 in0.0 mm 0.00 in0.0 mm 0.00 in0.0 mm
01:12 PM 64.4°F18.0°C 49.3°F9.6°C 58% 3.8 mph NE6.1 kmh NE 4.5 mph7.2 kmh 30.20 in1022.7 mb 0.00 in0.0 mm 0.00 in0.0 mm 0.00 in0.0 mm
01:14 PM 64.8°F18.2°C 49.6°F9.8°C 58% 4.0 mph E6.4 kmh E 9.2 mph14.8 kmh 30.20 in1022.7 mb 0.00 in0.0 mm 0.00 in0.0 mm 0.00 in0.0 mm
01:16 PM 64.9°F18.3°C 49.8°F9.9°C 58% 4.5 mph E7.2 kmh E 7.6 mph12.2 kmh 30.20 in1022.7 mb 0.00 in0.0 mm 0.00 in0.0 mm 0.00 in0.0 mm
01:19 PM 65.3°F18.5°C 49.6°F9.8°C 57% 4.7 mph E7.6 kmh E 5.6 mph9.0 kmh 30.20 in1022.7 mb 0.00 in0.0 mm 0.00 in0.0 mm 0.00 in0.0 mm
01:21 PM 65.5°F18.6°C 49.8°F9.9°C 57% 5.6 mph E9.0 kmh E 11.0 mph17.7 kmh 30.20 in1022.7 mb 0.00 in0.0 mm 0.00 in0.0 mm 0.00 in0.0 mm
01:23 PM 65.3°F18.5°C 49.3°F9.6°C 56% 6.0 mph ESE9.7 kmh ESE 8.3 mph13.4 kmh 30.20 in1022.7 mb 0.00 in0.0 mm 0.00 in0.0 mm 0.00 in0.0 mm
01:25 PM 65.5°F18.6°C 49.3°F9.6°C 56% 4.3 mph ESE6.9 kmh ESE 3.8 mph6.1 kmh 30.20 in1022.7 mb 0.00 in0.0 mm 0.00 in0.0 mm 0.00 in0.0 mm
01:27 PM 65.5°F18.6°C 49.3°F9.6°C 56% 3.4 mph E5.5 kmh E 3.1 mph5.0 kmh 30.19 in1022.4 mb 0.00 in0.0 mm 0.00 in0.0 mm 0.00 in0.0 mm
01:30 PM 65.5°F18.6°C 48.9°F9.4°C 55% 3.1 mph E5.0 kmh E 5.1 mph8.2 kmh 30.19 in1022.4 mb 0.00 in0.0 mm 0.00 in0.0 mm 0.00 in0.0 mm
01:32 PM 65.3°F18.5°C 48.7°F9.3°C 55% 4.0 mph E6.4 kmh E 7.4 mph11.9 kmh 30.19 in1022.4 mb 0.00 in0.0 mm 0.00 in0.0 mm 0.00 in0.0 mm
01:34 PM 65.1°F18.4°C 48.6°F9.2°C 55% 5.6 mph E9.0 kmh E 9.2 mph14.8 kmh 30.19 in1022.4 mb 0.00 in0.0 mm 0.00 in0.0 mm 0.00 in0.0 mm
01:36 PM 65.5°F18.6°C 48.9°F9.4°C 55% 5.6 mph E9.0 kmh E 8.9 mph14.3 kmh 30.19 in1022.4 mb 0.00 in0.0 mm 0.00 in0.0 mm 0.00 in0.0 mm
01:38 PM 65.5°F18.6°C 48.4°F9.1°C 54% 6.3 mph ENE10.1 kmh ENE 9.2 mph14.8 kmh 30.19 in1022.4 mb 0.00 in0.0 mm 0.00 in0.0 mm 0.00 in0.0 mm
01:40 PM 65.3°F18.5°C 47.7°F8.7°C 53% 5.6 mph 9.0 kmh 7.6 mph12.2 kmh 30.19 in1022.4 mb 0.00 in0.0 mm 0.00 in0.0 mm 0.00 in0.0 mm
01:43 PM 65.5°F18.6°C 47.8°F8.8°C 53% 4.7 mph ESE7.6 kmh ESE 5.6 mph9.0 kmh 30.19 in1022.4 mb 0.00 in0.0 mm 0.00 in0.0 mm 0.00 in0.0 mm
01:45 PM 65.5°F18.6°C 47.8°F8.8°C 53% 6.0 mph SE9.7 kmh SE 8.7 mph14.0 kmh 30.19 in1022.4 mb 0.00 in0.0 mm 0.00 in0.0 mm 0.00 in0.0 mm
01:47 PM 65.3°F18.5°C 48.2°F9.0°C 54% 6.7 mph NE10.8 kmh NE 9.8 mph15.8 kmh 30.19 in1022.4 mb 0.00 in0.0 mm 0.00 in0.0 mm 0.00 in0.0 mm
01:49 PM 65.7°F18.7°C 48.6°F9.2°C 54% 6.0 mph ESE9.7 kmh ESE 8.5 mph13.7 kmh 30.19 in1022.4 mb 0.00 in0.0 mm 0.00 in0.0 mm 0.00 in0.0 mm
01:52 PM 65.7°F18.7°C 48.0°F8.9°C 53% 5.1 mph ENE8.2 kmh ENE 6.3 mph10.1 kmh 30.19 in1022.4 mb 0.00 in0.0 mm 0.00 in0.0 mm 0.00 in0.0 mm
01:54 PM 66.0°F18.9°C 48.4°F9.1°C 53% 4.3 mph ESE6.9 kmh ESE 5.4 mph8.7 kmh 30.19 in1022.4 mb 0.00 in0.0 mm 0.00 in0.0 mm 0.00 in0.0 mm
01:56 PM 65.8°F18.8°C 47.7°F8.7°C 52% 5.8 mph ESE9.3 kmh ESE 10.3 mph16.6 kmh 30.19 in1022.4 mb 0.00 in0.0 mm 0.00 in0.0 mm 0.00 in0.0 mm
01:59 PM 65.7°F18.7°C 48.0°F8.9°C 53% 5.4 mph ENE8.7 kmh ENE 6.7 mph10.8 kmh 30.19 in1022.4 mb 0.00 in0.0 mm 0.00 in0.0 mm 0.00 in0.0 mm
02:01 PM 65.8°F18.8°C 48.2°F9.0°C 53% 5.1 mph E8.2 kmh E 6.0 mph9.7 kmh 30.19 in1022.4 mb 0.00 in0.0 mm 0.00 in0.0 mm 0.00 in0.0 mm
02:03 PM 66.0°F18.9°C 48.4°F9.1°C 53% 4.5 mph ESE7.2 kmh ESE 6.7 mph10.8 kmh 30.19 in1022.4 mb 0.00 in0.0 mm 0.00 in0.0 mm 0.00 in0.0 mm
02:05 PM 66.0°F18.9°C 48.4°F9.1°C 53% 6.0 mph E9.7 kmh E 10.1 mph16.3 kmh 30.19 in1022.4 mb 0.00 in0.0 mm 0.00 in0.0 mm 0.00 in0.0 mm
02:07 PM 66.0°F18.9°C 48.4°F9.1°C 53% 4.9 mph NNW7.9 kmh NNW 6.0 mph9.7 kmh 30.19 in1022.4 mb 0.00 in0.0 mm 0.00 in0.0 mm 0.00 in0.0 mm
02:10 PM 66.2°F19.0°C 48.6°F9.2°C 53% 3.1 mph ENE5.0 kmh ENE 2.5 mph4.0 kmh 30.19 in1022.4 mb 0.00 in0.0 mm 0.00 in0.0 mm 0.00 in0.0 mm
02:12 PM 66.4°F19.1°C 48.7°F9.3°C 53% 2.7 mph 4.3 kmh 6.7 mph10.8 kmh 30.19 in1022.4 mb 0.00 in0.0 mm 0.00 in0.0 mm 0.00 in0.0 mm
02:14 PM 66.4°F19.1°C 48.2°F9.0°C 52% 3.6 mph E5.8 kmh E 8.5 mph13.7 kmh 30.19 in1022.4 mb 0.00 in0.0 mm 0.00 in0.0 mm 0.00 in0.0 mm
02:16 PM 66.2°F19.0°C 48.0°F8.9°C 52% 4.5 mph ENE7.2 kmh ENE 6.9 mph11.1 kmh 30.19 in1022.4 mb 0.00 in0.0 mm 0.00 in0.0 mm 0.00 in0.0 mm
02:18 PM 66.0°F18.9°C 47.8°F8.8°C 52% 5.6 mph 9.0 kmh 9.6 mph15.4 kmh 30.19 in1022.4 mb 0.00 in0.0 mm 0.00 in0.0 mm 0.00 in0.0 mm
02:21 PM 66.4°F19.1°C 48.2°F9.0°C 52% 4.0 mph SSW6.4 kmh SSW 6.3 mph10.1 kmh 30.18 in1022.0 mb 0.00 in0.0 mm 0.00 in0.0 mm 0.00 in0.0 mm
02:23 PM 66.4°F19.1°C 47.7°F8.7°C 51% 3.1 mph ESE5.0 kmh ESE 5.1 mph8.2 kmh 30.19 in1022.4 mb 0.00 in0.0 mm 0.00 in0.0 mm 0.00 in0.0 mm
02:25 PM 66.4°F19.1°C 48.2°F9.0°C 52% 3.1 mph W5.0 kmh W 4.0 mph6.4 kmh 30.19 in1022.4 mb 0.00 in0.0 mm 0.00 in0.0 mm 0.00 in0.0 mm
02:27 PM 66.4°F19.1°C 47.7°F8.7°C 51% 3.6 mph SE5.8 kmh SE 6.5 mph10.5 kmh 30.18 in1022.0 mb 0.00 in0.0 mm 0.00 in0.0 mm 0.00 in0.0 mm
02:29 PM 66.0°F18.9°C 47.3°F8.5°C 51% 2.7 mph NNE4.3 kmh NNE 5.4 mph8.7 kmh 30.19 in1022.4 mb 0.00 in0.0 mm 0.00 in0.0 mm 0.00 in0.0 mm
02:32 PM 66.2°F19.0°C 47.5°F8.6°C 51% 4.9 mph NE7.9 kmh NE 9.8 mph15.8 kmh 30.19 in1022.4 mb 0.00 in0.0 mm 0.00 in0.0 mm 0.00 in0.0 mm
02:34 PM 66.0°F18.9°C 47.3°F8.5°C 51% 5.4 mph E8.7 kmh E 8.3 mph13.4 kmh 30.18 in1022.0 mb 0.00 in0.0 mm 0.00 in0.0 mm 0.00 in0.0 mm
02:36 PM 66.0°F18.9°C 47.3°F8.5°C 51% 3.1 mph SSE5.0 kmh SSE 3.1 mph5.0 kmh 30.18 in1022.0 mb 0.00 in0.0 mm 0.00 in0.0 mm 0.00 in0.0 mm
02:38 PM 66.0°F18.9°C 47.3°F8.5°C 51% 2.2 mph NW3.5 kmh NW 3.8 mph6.1 kmh 30.18 in1022.0 mb 0.00 in0.0 mm 0.00 in0.0 mm 0.00 in0.0 mm
02:40 PM 66.4°F19.1°C 47.7°F8.7°C 51% 2.0 mph NNE3.2 kmh NNE 2.5 mph4.0 kmh 30.18 in1022.0 mb 0.00 in0.0 mm 0.00 in0.0 mm 0.00 in0.0 mm
02:42 PM 66.7°F19.3°C 48.0°F8.9°C 51% 2.2 mph E3.5 kmh E 7.6 mph12.2 kmh 30.18 in1022.0 mb 0.00 in0.0 mm 0.00 in0.0 mm 0.00 in0.0 mm
02:45 PM 66.7°F19.3°C 48.0°F8.9°C 51% 4.0 mph ESE6.4 kmh ESE 8.3 mph13.4 kmh 30.18 in1022.0 mb 0.00 in0.0 mm 0.00 in0.0 mm 0.00 in0.0 mm
02:47 PM 66.6°F19.2°C 47.3°F8.5°C 50% 3.8 mph E6.1 kmh E 5.4 mph8.7 kmh 30.19 in1022.4 mb 0.00 in0.0 mm 0.00 in0.0 mm 0.00 in0.0 mm
02:49 PM 66.0°F18.9°C 46.8°F8.2°C 50% 4.7 mph E7.6 kmh E 8.5 mph13.7 kmh 30.19 in1022.4 mb 0.00 in0.0 mm 0.00 in0.0 mm 0.00 in0.0 mm
02:52 PM 66.0°F18.9°C 47.3°F8.5°C 51% 2.5 mph ENE4.0 kmh ENE 2.5 mph4.0 kmh 30.19 in1022.4 mb 0.00 in0.0 mm 0.00 in0.0 mm 0.00 in0.0 mm
02:54 PM 66.4°F19.1°C 47.1°F8.4°C 50% 2.2 mph ENE3.5 kmh ENE 3.8 mph6.1 kmh 30.19 in1022.4 mb 0.00 in0.0 mm 0.00 in0.0 mm 0.00 in0.0 mm
02:56 PM 66.6°F19.2°C 47.3°F8.5°C 50% 1.6 mph E2.6 kmh E 3.8 mph6.1 kmh 30.19 in1022.4 mb 0.00 in0.0 mm 0.00 in0.0 mm 0.00 in0.0 mm
02:58 PM 66.6°F19.2°C 47.3°F8.5°C 50% 1.8 mph SE2.9 kmh SE 4.7 mph7.6 kmh 30.19 in1022.4 mb 0.00 in0.0 mm 0.00 in0.0 mm 0.00 in0.0 mm
03:00 PM 66.2°F19.0°C 46.9°F8.3°C 50% 4.0 mph E6.4 kmh E 8.9 mph14.3 kmh 30.19 in1022.4 mb 0.00 in0.0 mm 0.00 in0.0 mm 0.00 in0.0 mm
03:02 PM 65.8°F18.8°C 46.8°F8.2°C 50% 3.8 mph ESE6.1 kmh ESE 6.9 mph11.1 kmh 30.19 in1022.4 mb 0.00 in0.0 mm 0.00 in0.0 mm 0.00 in0.0 mm
03:05 PM 65.8°F18.8°C 47.1°F8.4°C 51% 2.2 mph NNE3.5 kmh NNE 2.5 mph4.0 kmh 30.18 in1022.0 mb 0.00 in0.0 mm 0.00 in0.0 mm 0.00 in0.0 mm
03:07 PM 66.0°F18.9°C 47.3°F8.5°C 51% 3.1 mph ESE5.0 kmh ESE 7.4 mph11.9 kmh 30.19 in1022.4 mb 0.00 in0.0 mm 0.00 in0.0 mm 0.00 in0.0 mm
03:09 PM 66.0°F18.9°C 47.3°F8.5°C 51% 2.2 mph ESE3.5 kmh ESE 2.2 mph3.5 kmh 30.19 in1022.4 mb 0.00 in0.0 mm 0.00 in0.0 mm 0.00 in0.0 mm
03:11 PM 65.8°F18.8°C 47.1°F8.4°C 51% 3.1 mph SE5.0 kmh SE 6.3 mph10.1 kmh 30.19 in1022.4 mb 0.00 in0.0 mm 0.00 in0.0 mm 0.00 in0.0 mm
03:13 PM 65.5°F18.6°C 46.9°F8.3°C 51% 2.5 mph SSE4.0 kmh SSE 2.9 mph4.7 kmh 30.19 in1022.4 mb 0.00 in0.0 mm 0.00 in0.0 mm 0.00 in0.0 mm
03:16 PM 65.5°F18.6°C 46.9°F8.3°C 51% 2.5 mph ESE4.0 kmh ESE 3.8 mph6.1 kmh 30.19 in1022.4 mb 0.00 in0.0 mm 0.00 in0.0 mm 0.00 in0.0 mm
03:18 PM 65.8°F18.8°C 47.1°F8.4°C 51% 2.9 mph E4.7 kmh E 5.1 mph8.2 kmh 30.19 in1022.4 mb 0.00 in0.0 mm 0.00 in0.0 mm 0.00 in0.0 mm
03:20 PM 66.0°F18.9°C 47.3°F8.5°C 51% 3.1 mph ESE5.0 kmh ESE 4.0 mph6.4 kmh 30.19 in1022.4 mb 0.00 in0.0 mm 0.00 in0.0 mm 0.00 in0.0 mm
03:22 PM 66.0°F18.9°C 47.3°F8.5°C 51% 2.5 mph ESE4.0 kmh ESE 4.5 mph7.2 kmh 30.19 in1022.4 mb 0.00 in0.0 mm 0.00 in0.0 mm 0.00 in0.0 mm
03:25 PM 66.0°F18.9°C 47.3°F8.5°C 51% 2.9 mph SE4.7 kmh SE 4.7 mph7.6 kmh 30.19 in1022.4 mb 0.00 in0.0 mm 0.00 in0.0 mm 0.00 in0.0 mm
03:27 PM 66.0°F18.9°C 47.3°F8.5°C 51% 1.6 mph SSE2.6 kmh SSE 1.3 mph2.1 kmh 30.19 in1022.4 mb 0.00 in0.0 mm 0.00 in0.0 mm 0.00 in0.0 mm
03:29 PM 66.2°F19.0°C 47.5°F8.6°C 51% 2.0 mph ESE3.2 kmh ESE 3.8 mph6.1 kmh 30.19 in1022.4 mb 0.00 in0.0 mm 0.00 in0.0 mm 0.00 in0.0 mm
03:31 PM 66.0°F18.9°C 47.3°F8.5°C 51% 2.2 mph ESE3.5 kmh ESE 3.1 mph5.0 kmh 30.19 in1022.4 mb 0.00 in0.0 mm 0.00 in0.0 mm 0.00 in0.0 mm
03:33 PM 65.8°F18.8°C 47.1°F8.4°C 51% 1.8 mph ESE2.9 kmh ESE 2.0 mph3.2 kmh 30.19 in1022.4 mb 0.00 in0.0 mm 0.00 in0.0 mm 0.00 in0.0 mm
03:35 PM 65.8°F18.8°C 47.1°F8.4°C 51% 1.8 mph ESE2.9 kmh ESE 3.8 mph6.1 kmh 30.19 in1022.4 mb 0.00 in0.0 mm 0.00 in0.0 mm 0.00 in0.0 mm
03:38 PM 65.8°F18.8°C 47.1°F8.4°C 51% 1.3 mph ESE2.1 kmh ESE 3.4 mph5.5 kmh 30.19 in1022.4 mb 0.00 in0.0 mm 0.00 in0.0 mm 0.00 in0.0 mm
03:40 PM 65.8°F18.8°C 47.1°F8.4°C 51% 0.9 mph SE1.4 kmh SE 1.6 mph2.6 kmh 30.19 in1022.4 mb 0.00 in0.0 mm 0.00 in0.0 mm 0.00 in0.0 mm
03:42 PM 65.8°F18.8°C 47.1°F8.4°C 51% 0.9 mph ESE1.4 kmh ESE 2.9 mph4.7 kmh 30.19 in1022.4 mb 0.00 in0.0 mm 0.00 in0.0 mm 0.00 in0.0 mm
03:44 PM 65.8°F18.8°C 47.1°F8.4°C 51% 1.8 mph ESE2.9 kmh ESE 3.6 mph5.8 kmh 30.19 in1022.4 mb 0.00 in0.0 mm 0.00 in0.0 mm 0.00 in0.0 mm
03:46 PM 65.8°F18.8°C 47.1°F8.4°C 51% 1.6 mph SE2.6 kmh SE 3.8 mph6.1 kmh 30.18 in1022.0 mb 0.00 in0.0 mm 0.00 in0.0 mm 0.00 in0.0 mm
03:48 PM 65.8°F18.8°C 47.1°F8.4°C 51% 0.9 mph ENE1.4 kmh ENE -- 30.18 in1022.0 mb 0.00 in0.0 mm 0.00 in0.0 mm 0.00 in0.0 mm
03:51 PM 66.0°F18.9°C 47.3°F8.5°C 51% 0.4 mph 0.6 kmh -- 30.18 in1022.0 mb 0.00 in0.0 mm 0.00 in0.0 mm 0.00 in0.0 mm
03:53 PM 66.4°F19.1°C 47.7°F8.7°C 51% 0.4 mph 0.6 kmh 1.1 mph1.8 kmh 30.18 in1022.0 mb 0.00 in0.0 mm 0.00 in0.0 mm 0.00 in0.0 mm
03:55 PM 66.6°F19.2°C 47.8°F8.8°C 51% 0.7 mph NNE1.1 kmh NNE 2.5 mph4.0 kmh 30.18 in1022.0 mb 0.00 in0.0 mm 0.00 in0.0 mm 0.00 in0.0 mm
03:57 PM 66.7°F19.3°C 48.0°F8.9°C 51% 0.4 mph ESE0.6 kmh ESE 1.1 mph1.8 kmh 30.18 in1022.0 mb 0.00 in0.0 mm 0.00 in0.0 mm 0.00 in0.0 mm
04:00 PM 66.6°F19.2°C 47.3°F8.5°C 50% 0.4 mph SE0.6 kmh SE 1.6 mph2.6 kmh 30.17 in1021.7 mb 0.00 in0.0 mm 0.00 in0.0 mm 0.00 in0.0 mm
04:02 PM 66.6°F19.2°C 47.3°F8.5°C 50% 0.2 mph 0.3 kmh -- 30.18 in1022.0 mb 0.00 in0.0 mm 0.00 in0.0 mm 0.00 in0.0 mm
04:04 PM 66.6°F19.2°C 47.3°F8.5°C 50% 0.2 mph SE0.3 kmh SE -- 30.18 in1022.0 mb 0.00 in0.0 mm 0.00 in0.0 mm 0.00 in0.0 mm
04:06 PM 66.7°F19.3°C 47.5°F8.6°C 50% 0.2 mph SSE0.3 kmh SSE -- 30.18 in1022.0 mb 0.00 in0.0 mm 0.00 in0.0 mm 0.00 in0.0 mm
04:08 PM 66.9°F19.4°C 47.7°F8.7°C 50% 0.2 mph S0.3 kmh S -- 30.18 in1022.0 mb 0.00 in0.0 mm 0.00 in0.0 mm 0.00 in0.0 mm
04:11 PM 66.9°F19.4°C 47.7°F8.7°C 50% 0.2 mph NNW0.3 kmh NNW -- 30.18 in1022.0 mb 0.00 in0.0 mm 0.00 in0.0 mm 0.00 in0.0 mm
04:13 PM 66.9°F19.4°C 47.7°F8.7°C 50% 0.2 mph E0.3 kmh E -- 30.18 in1022.0 mb 0.00 in0.0 mm 0.00 in0.0 mm 0.00 in0.0 mm
04:15 PM 66.9°F19.4°C 47.7°F8.7°C 50% 0.2 mph NNE0.3 kmh NNE -- 30.18 in1022.0 mb 0.00 in0.0 mm 0.00 in0.0 mm 0.00 in0.0 mm
04:18 PM 66.9°F19.4°C 47.7°F8.7°C 50% 0.2 mph ENE0.3 kmh ENE 1.1 mph1.8 kmh 30.18 in1022.0 mb 0.00 in0.0 mm 0.00 in0.0 mm 0.00 in0.0 mm
04:20 PM 66.9°F19.4°C 47.7°F8.7°C 50% 0.2 mph NNW0.3 kmh NNW 0.9 mph1.4 kmh 30.18 in1022.0 mb 0.00 in0.0 mm 0.00 in0.0 mm 0.00 in0.0 mm
04:22 PM 66.7°F19.3°C 47.5°F8.6°C 50% 0.4 mph 0.6 kmh 1.6 mph2.6 kmh 30.18 in1022.0 mb 0.00 in0.0 mm 0.00 in0.0 mm 0.00 in0.0 mm
04:24 PM 66.6°F19.2°C 47.3°F8.5°C 50% 1.1 mph NNW1.8 kmh NNW 3.8 mph6.1 kmh 30.18 in1022.0 mb 0.00 in0.0 mm 0.00 in0.0 mm 0.00 in0.0 mm
04:26 PM 66.2°F19.0°C 46.9°F8.3°C 50% 1.8 mph 2.9 kmh 3.1 mph5.0 kmh 30.18 in1022.0 mb 0.00 in0.0 mm 0.00 in0.0 mm 0.00 in0.0 mm
04:28 PM 66.0°F18.9°C 47.3°F8.5°C 51% 0.9 mph ESE1.4 kmh ESE -- 30.18 in1022.0 mb 0.00 in0.0 mm 0.00 in0.0 mm 0.00 in0.0 mm
04:31 PM 66.0°F18.9°C 47.8°F8.8°C 52% 0.7 mph ESE1.1 kmh ESE 1.8 mph2.9 kmh 30.18 in1022.0 mb 0.00 in0.0 mm 0.00 in0.0 mm 0.00 in0.0 mm
04:33 PM 65.8°F18.8°C 47.7°F8.7°C 52% 0.9 mph NE1.4 kmh NE 2.7 mph4.3 kmh 30.18 in1022.0 mb 0.00 in0.0 mm 0.00 in0.0 mm 0.00 in0.0 mm
04:35 PM 65.8°F18.8°C 47.7°F8.7°C 52% 1.1 mph NE1.8 kmh NE 5.8 mph9.3 kmh 30.18 in1022.0 mb 0.00 in0.0 mm 0.00 in0.0 mm 0.00 in0.0 mm
04:37 PM 65.5°F18.6°C 47.8°F8.8°C 53% 1.1 mph NNW1.8 kmh NNW 2.2 mph3.5 kmh 30.18 in1022.0 mb 0.00 in0.0 mm 0.00 in0.0 mm 0.00 in0.0 mm
04:40 PM 65.3°F18.5°C 47.7°F8.7°C 53% 2.0 mph 3.2 kmh 4.3 mph6.9 kmh 30.17 in1021.7 mb 0.00 in0.0 mm 0.00 in0.0 mm 0.00 in0.0 mm
04:42 PM 65.1°F18.4°C 48.0°F8.9°C 54% 1.6 mph NNE2.6 kmh NNE 4.0 mph6.4 kmh 30.17 in1021.7 mb 0.00 in0.0 mm 0.00 in0.0 mm 0.00 in0.0 mm
04:44 PM 65.1°F18.4°C 48.0°F8.9°C 54% 2.0 mph SE3.2 kmh SE 4.3 mph6.9 kmh 30.17 in1021.7 mb 0.00 in0.0 mm 0.00 in0.0 mm 0.00 in0.0 mm
04:46 PM 64.9°F18.3°C 47.8°F8.8°C 54% 2.7 mph ENE4.3 kmh ENE 4.9 mph7.9 kmh 30.17 in1021.7 mb 0.00 in0.0 mm 0.00 in0.0 mm 0.00 in0.0 mm
04:49 PM 64.8°F18.2°C 47.7°F8.7°C 54% 2.7 mph ENE4.3 kmh ENE 3.4 mph5.5 kmh 30.17 in1021.7 mb 0.00 in0.0 mm 0.00 in0.0 mm 0.00 in0.0 mm
04:51 PM 64.6°F18.1°C 47.5°F8.6°C 54% 1.6 mph ESE2.6 kmh ESE 2.2 mph3.5 kmh 30.17 in1021.7 mb 0.00 in0.0 mm 0.00 in0.0 mm 0.00 in0.0 mm
04:53 PM 64.6°F18.1°C 47.5°F8.6°C 54% 1.1 mph NNE1.8 kmh NNE 2.0 mph3.2 kmh 30.18 in1022.0 mb 0.00 in0.0 mm 0.00 in0.0 mm 0.00 in0.0 mm
04:55 PM 64.2°F17.9°C 47.3°F8.5°C 54% 0.7 mph E1.1 kmh E -- 30.18 in1022.0 mb 0.00 in0.0 mm 0.00 in0.0 mm 0.00 in0.0 mm
04:58 PM 64.2°F17.9°C 47.3°F8.5°C 54% 0.4 mph E0.6 kmh E -- 30.18 in1022.0 mb 0.00 in0.0 mm 0.00 in0.0 mm 0.00 in0.0 mm
05:00 PM 64.0°F17.8°C 47.1°F8.4°C 54% 0.2 mph E0.3 kmh E -- 30.18 in1022.0 mb 0.00 in0.0 mm 0.00 in0.0 mm 0.00 in0.0 mm
05:02 PM 63.7°F17.6°C 47.3°F8.5°C 55% 0.2 mph ESE0.3 kmh ESE 1.3 mph2.1 kmh 30.18 in1022.0 mb 0.00 in0.0 mm 0.00 in0.0 mm 0.00 in0.0 mm
05:05 PM 63.1°F17.3°C 46.8°F8.2°C 55% 0.4 mph SE0.6 kmh SE 1.8 mph2.9 kmh 30.19 in1022.4 mb 0.00 in0.0 mm 0.00 in0.0 mm 0.00 in0.0 mm
05:07 PM 62.8°F17.1°C 46.4°F8.0°C 55% 1.1 mph E1.8 kmh E 2.5 mph4.0 kmh 30.18 in1022.0 mb 0.00 in0.0 mm 0.00 in0.0 mm 0.00 in0.0 mm
05:09 PM 62.2°F16.8°C 45.9°F7.7°C 55% 1.6 mph E2.6 kmh E 2.5 mph4.0 kmh 30.19 in1022.4 mb 0.00 in0.0 mm 0.00 in0.0 mm 0.00 in0.0 mm
05:11 PM 61.7°F16.5°C 45.9°F7.7°C 56% 2.0 mph ESE3.2 kmh ESE 3.1 mph5.0 kmh 30.19 in1022.4 mb 0.00 in0.0 mm 0.00 in0.0 mm 0.00 in0.0 mm
05:13 PM 61.5°F16.4°C 46.2°F7.9°C 57% 2.2 mph ESE3.5 kmh ESE 3.8 mph6.1 kmh 30.19 in1022.4 mb 0.00 in0.0 mm 0.00 in0.0 mm 0.00 in0.0 mm
05:16 PM 61.3°F16.3°C 46.0°F7.8°C 57% 2.5 mph ENE4.0 kmh ENE 4.3 mph6.9 kmh 30.18 in1022.0 mb 0.00 in0.0 mm 0.00 in0.0 mm 0.00 in0.0 mm
05:18 PM 61.2°F16.2°C 46.2°F7.9°C 58% 1.1 mph NE1.8 kmh NE -- 30.19 in1022.4 mb 0.00 in0.0 mm 0.00 in0.0 mm 0.00 in0.0 mm
05:20 PM 61.0°F16.1°C 46.0°F7.8°C 58% 0.7 mph NNW1.1 kmh NNW -- 30.19 in1022.4 mb 0.00 in0.0 mm 0.00 in0.0 mm 0.00 in0.0 mm
05:22 PM 60.6°F15.9°C 46.2°F7.9°C 59% 0.4 mph NNW0.6 kmh NNW -- 30.19 in1022.4 mb 0.00 in0.0 mm 0.00 in0.0 mm 0.00 in0.0 mm
05:25 PM 60.4°F15.8°C 46.0°F7.8°C 59% 0.7 mph ESE1.1 kmh ESE 2.0 mph3.2 kmh 30.19 in1022.4 mb 0.00 in0.0 mm 0.00 in0.0 mm 0.00 in0.0 mm
05:27 PM 60.4°F15.8°C 46.4°F8.0°C 60% 0.4 mph NNE0.6 kmh NNE 1.1 mph1.8 kmh 30.18 in1022.0 mb 0.00 in0.0 mm 0.00 in0.0 mm 0.00 in0.0 mm
05:29 PM 60.1°F15.6°C 46.2°F7.9°C 60% 0.4 mph NW0.6 kmh NW 1.3 mph2.1 kmh 30.18 in1022.0 mb 0.00 in0.0 mm 0.00 in0.0 mm 0.00 in0.0 mm
05:31 PM 59.9°F15.5°C 46.0°F7.8°C 60% 0.7 mph NNE1.1 kmh NNE 1.8 mph2.9 kmh 30.18 in1022.0 mb 0.00 in0.0 mm 0.00 in0.0 mm 0.00 in0.0 mm
05:33 PM 59.7°F15.4°C 46.2°F7.9°C 61% 0.4 mph ENE0.6 kmh ENE -- 30.19 in1022.4 mb 0.00 in0.0 mm 0.00 in0.0 mm 0.00 in0.0 mm
05:36 PM 59.5°F15.3°C 46.0°F7.8°C 61% 0.2 mph ESE0.3 kmh ESE -- 30.19 in1022.4 mb 0.00 in0.0 mm 0.00 in0.0 mm 0.00 in0.0 mm
05:38 PM 59.5°F15.3°C 46.6°F8.1°C 62% 0.2 mph SSE0.3 kmh SSE -- 30.19 in1022.4 mb 0.00 in0.0 mm 0.00 in0.0 mm 0.00 in0.0 mm
05:40 PM 59.4°F15.2°C 46.4°F8.0°C 62% 0.2 mph E0.3 kmh E -- 30.19 in1022.4 mb 0.00 in0.0 mm 0.00 in0.0 mm 0.00 in0.0 mm
05:42 PM 59.2°F15.1°C 46.6°F8.1°C 63% 0.2 mph SSE0.3 kmh SSE -- 30.19 in1022.4 mb 0.00 in0.0 mm 0.00 in0.0 mm 0.00 in0.0 mm
05:44 PM 59.2°F15.1°C 46.6°F8.1°C 63% 0.2 mph E0.3 kmh E 1.3 mph2.1 kmh 30.19 in1022.4 mb 0.00 in0.0 mm 0.00 in0.0 mm 0.00 in0.0 mm
05:47 PM 59.0°F15.0°C 46.4°F8.0°C 63% 0.2 mph E0.3 kmh E -- 30.19 in1022.4 mb 0.00 in0.0 mm 0.00 in0.0 mm 0.00 in0.0 mm
05:49 PM 58.8°F14.9°C 46.6°F8.1°C 64% 0.4 mph ESE0.6 kmh ESE 1.6 mph2.6 kmh 30.19 in1022.4 mb 0.00 in0.0 mm 0.00 in0.0 mm 0.00 in0.0 mm
05:51 PM 58.8°F14.9°C 46.6°F8.1°C 64% 0.2 mph SE0.3 kmh SE -- 30.19 in1022.4 mb 0.00 in0.0 mm 0.00 in0.0 mm 0.00 in0.0 mm
05:53 PM 58.6°F14.8°C 46.6°F8.1°C 64% 0.2 mph NNW0.3 kmh NNW -- 30.19 in1022.4 mb 0.00 in0.0 mm 0.00 in0.0 mm 0.00 in0.0 mm
05:55 PM 58.6°F14.8°C 46.6°F8.1°C 64% 0.4 mph ESE0.6 kmh ESE 1.3 mph2.1 kmh 30.19 in1022.4 mb 0.00 in0.0 mm 0.00 in0.0 mm 0.00 in0.0 mm
05:58 PM 58.5°F14.7°C 46.8°F8.2°C 65% 0.4 mph S0.6 kmh S 1.3 mph2.1 kmh 30.19 in1022.4 mb 0.00 in0.0 mm 0.00 in0.0 mm 0.00 in0.0 mm
06:00 PM 58.3°F14.6°C 46.6°F8.1°C 65% 0.4 mph ENE0.6 kmh ENE 0.9 mph1.4 kmh 30.19 in1022.4 mb 0.00 in0.0 mm 0.00 in0.0 mm 0.00 in0.0 mm
06:02 PM 58.3°F14.6°C 46.6°F8.1°C 65% 0.2 mph S0.3 kmh S -- 30.20 in1022.7 mb 0.00 in0.0 mm 0.00 in0.0 mm 0.00 in0.0 mm
06:04 PM 58.1°F14.5°C 46.8°F8.2°C 66% 0.2 mph ESE0.3 kmh ESE -- 30.20 in1022.7 mb 0.00 in0.0 mm 0.00 in0.0 mm 0.00 in0.0 mm
06:06 PM 57.9°F14.4°C 46.6°F8.1°C 66% 0.2 mph ESE0.3 kmh ESE 1.3 mph2.1 kmh 30.20 in1022.7 mb 0.00 in0.0 mm 0.00 in0.0 mm 0.00 in0.0 mm
06:09 PM 57.9°F14.4°C 46.6°F8.1°C 66% 0.4 mph ESE0.6 kmh ESE 2.0 mph3.2 kmh 30.20 in1022.7 mb 0.00 in0.0 mm 0.00 in0.0 mm 0.00 in0.0 mm
06:11 PM 57.9°F14.4°C 46.9°F8.3°C 67% 0.7 mph SSE1.1 kmh SSE 2.2 mph3.5 kmh 30.20 in1022.7 mb 0.00 in0.0 mm 0.00 in0.0 mm 0.00 in0.0 mm
06:13 PM 57.9°F14.4°C 46.9°F8.3°C 67% 1.3 mph SSE2.1 kmh SSE 5.1 mph8.2 kmh 30.20 in1022.7 mb 0.00 in0.0 mm 0.00 in0.0 mm 0.00 in0.0 mm
06:15 PM 57.9°F14.4°C 46.9°F8.3°C 67% 1.8 mph ENE2.9 kmh ENE 4.0 mph6.4 kmh 30.20 in1022.7 mb 0.00 in0.0 mm 0.00 in0.0 mm 0.00 in0.0 mm
06:18 PM 58.1°F14.5°C 47.1°F8.4°C 67% 2.0 mph ESE3.2 kmh ESE 5.8 mph9.3 kmh 30.20 in1022.7 mb 0.00 in0.0 mm 0.00 in0.0 mm 0.00 in0.0 mm
06:20 PM 57.9°F14.4°C 46.9°F8.3°C 67% 1.3 mph NNE2.1 kmh NNE 3.4 mph5.5 kmh 30.20 in1022.7 mb 0.00 in0.0 mm 0.00 in0.0 mm 0.00 in0.0 mm
06:22 PM 57.9°F14.4°C 46.9°F8.3°C 67% 1.6 mph E2.6 kmh E 6.3 mph10.1 kmh 30.20 in1022.7 mb 0.00 in0.0 mm 0.00 in0.0 mm 0.00 in0.0 mm
06:24 PM 57.9°F14.4°C 47.5°F8.6°C 68% 2.0 mph NE3.2 kmh NE 2.9 mph4.7 kmh 30.20 in1022.7 mb 0.00 in0.0 mm 0.00 in0.0 mm 0.00 in0.0 mm
06:26 PM 57.9°F14.4°C 47.5°F8.6°C 68% 2.0 mph ENE3.2 kmh ENE 5.4 mph8.7 kmh 30.20 in1022.7 mb 0.00 in0.0 mm 0.00 in0.0 mm 0.00 in0.0 mm
06:29 PM 57.9°F14.4°C 47.5°F8.6°C 68% 2.5 mph ENE4.0 kmh ENE 5.4 mph8.7 kmh 30.20 in1022.7 mb 0.00 in0.0 mm 0.00 in0.0 mm 0.00 in0.0 mm
06:31 PM 57.9°F14.4°C 47.5°F8.6°C 68% 2.9 mph ESE4.7 kmh ESE 4.7 mph7.6 kmh 30.20 in1022.7 mb 0.00 in0.0 mm 0.00 in0.0 mm 0.00 in0.0 mm
06:33 PM 57.7°F14.3°C 47.3°F8.5°C 68% 2.2 mph E3.5 kmh E 3.1 mph5.0 kmh 30.21 in1023.0 mb 0.00 in0.0 mm 0.00 in0.0 mm 0.00 in0.0 mm
06:35 PM 57.7°F14.3°C 47.3°F8.5°C 68% 2.7 mph ENE4.3 kmh ENE 5.8 mph9.3 kmh 30.21 in1023.0 mb 0.00 in0.0 mm 0.00 in0.0 mm 0.00 in0.0 mm
06:38 PM 57.7°F14.3°C 47.3°F8.5°C 68% 2.9 mph E4.7 kmh E 6.5 mph10.5 kmh 30.20 in1022.7 mb 0.00 in0.0 mm 0.00 in0.0 mm 0.00 in0.0 mm
06:40 PM 57.7°F14.3°C 47.3°F8.5°C 68% 2.5 mph ESE4.0 kmh ESE 2.9 mph4.7 kmh 30.21 in1023.0 mb 0.00 in0.0 mm 0.00 in0.0 mm 0.00 in0.0 mm
06:42 PM 57.7°F14.3°C 47.3°F8.5°C 68% 2.9 mph ESE4.7 kmh ESE 3.8 mph6.1 kmh 30.20 in1022.7 mb 0.00 in0.0 mm 0.00 in0.0 mm 0.00 in0.0 mm
06:44 PM 57.6°F14.2°C 47.1°F8.4°C 68% 3.8 mph ENE6.1 kmh ENE 7.8 mph12.6 kmh 30.20 in1022.7 mb 0.00 in0.0 mm 0.00 in0.0 mm 0.00 in0.0 mm
06:47 PM 57.6°F14.2°C 47.5°F8.6°C 69% 4.3 mph ESE6.9 kmh ESE 6.0 mph9.7 kmh 30.20 in1022.7 mb 0.00 in0.0 mm 0.00 in0.0 mm 0.00 in0.0 mm
06:49 PM 57.6°F14.2°C 47.5°F8.6°C 69% 4.0 mph E6.4 kmh E 5.1 mph8.2 kmh 30.21 in1023.0 mb 0.00 in0.0 mm 0.00 in0.0 mm 0.00 in0.0 mm
06:51 PM 57.6°F14.2°C 47.5°F8.6°C 69% 5.4 mph E8.7 kmh E 8.5 mph13.7 kmh 30.21 in1023.0 mb 0.00 in0.0 mm 0.00 in0.0 mm 0.00 in0.0 mm
06:53 PM 57.6°F14.2°C 47.5°F8.6°C 69% 4.5 mph ESE7.2 kmh ESE 4.0 mph6.4 kmh 30.21 in1023.0 mb 0.00 in0.0 mm 0.00 in0.0 mm 0.00 in0.0 mm
06:55 PM 57.6°F14.2°C 47.5°F8.6°C 69% 4.0 mph SE6.4 kmh SE 5.1 mph8.2 kmh 30.21 in1023.0 mb 0.00 in0.0 mm 0.00 in0.0 mm 0.00 in0.0 mm
06:57 PM 57.4°F14.1°C 47.3°F8.5°C 69% 4.5 mph ESE7.2 kmh ESE 5.4 mph8.7 kmh 30.20 in1022.7 mb 0.00 in0.0 mm 0.00 in0.0 mm 0.00 in0.0 mm
06:59 PM 57.4°F14.1°C 47.7°F8.7°C 70% 4.3 mph ESE6.9 kmh ESE 5.8 mph9.3 kmh 30.20 in1022.7 mb 0.00 in0.0 mm 0.00 in0.0 mm 0.00 in0.0 mm
07:02 PM 57.4°F14.1°C 47.7°F8.7°C 70% 5.8 mph ESE9.3 kmh ESE 8.7 mph14.0 kmh 30.20 in1022.7 mb 0.00 in0.0 mm 0.00 in0.0 mm 0.00 in0.0 mm
07:04 PM 57.4°F14.1°C 47.7°F8.7°C 70% 6.3 mph SSE10.1 kmh SSE 9.2 mph14.8 kmh 30.21 in1023.0 mb 0.00 in0.0 mm 0.00 in0.0 mm 0.00 in0.0 mm
07:06 PM 57.4°F14.1°C 47.7°F8.7°C 70% 4.9 mph ESE7.9 kmh ESE 6.3 mph10.1 kmh 30.21 in1023.0 mb 0.00 in0.0 mm 0.00 in0.0 mm 0.00 in0.0 mm
07:08 PM 57.4°F14.1°C 47.7°F8.7°C 70% 2.9 mph SE4.7 kmh SE 4.3 mph6.9 kmh 30.22 in1023.4 mb 0.00 in0.0 mm 0.00 in0.0 mm 0.00 in0.0 mm
07:10 PM 57.4°F14.1°C 47.7°F8.7°C 70% 2.2 mph SE3.5 kmh SE 3.6 mph5.8 kmh 30.21 in1023.0 mb 0.00 in0.0 mm 0.00 in0.0 mm 0.00 in0.0 mm
07:13 PM 57.4°F14.1°C 47.7°F8.7°C 70% 1.3 mph NW2.1 kmh NW 2.5 mph4.0 kmh 30.21 in1023.0 mb 0.00 in0.0 mm 0.00 in0.0 mm 0.00 in0.0 mm
07:15 PM 57.2°F14.0°C 47.5°F8.6°C 70% 0.9 mph WSW1.4 kmh WSW 1.6 mph2.6 kmh 30.21 in1023.0 mb 0.00 in0.0 mm 0.00 in0.0 mm 0.00 in0.0 mm
07:17 PM 57.0°F13.9°C 47.3°F8.5°C 70% 1.1 mph E1.8 kmh E 2.5 mph4.0 kmh 30.21 in1023.0 mb 0.00 in0.0 mm 0.00 in0.0 mm 0.00 in0.0 mm
07:19 PM 57.0°F13.9°C 47.3°F8.5°C 70% 1.8 mph SE2.9 kmh SE 3.8 mph6.1 kmh 30.21 in1023.0 mb 0.00 in0.0 mm 0.00 in0.0 mm 0.00 in0.0 mm
07:22 PM 57.0°F13.9°C 47.3°F8.5°C 70% 2.2 mph ESE3.5 kmh ESE 4.9 mph7.9 kmh 30.21 in1023.0 mb 0.00 in0.0 mm 0.00 in0.0 mm 0.00 in0.0 mm
07:24 PM 56.8°F13.8°C 47.1°F8.4°C 70% 2.5 mph ENE4.0 kmh ENE 5.1 mph8.2 kmh 30.21 in1023.0 mb 0.00 in0.0 mm 0.00 in0.0 mm 0.00 in0.0 mm
07:26 PM 56.8°F13.8°C 47.1°F8.4°C 70% 2.5 mph E4.0 kmh E 5.1 mph8.2 kmh 30.21 in1023.0 mb 0.00 in0.0 mm 0.00 in0.0 mm 0.00 in0.0 mm
07:28 PM 56.8°F13.8°C 47.1°F8.4°C 70% 2.0 mph E3.2 kmh E 3.8 mph6.1 kmh 30.21 in1023.0 mb 0.00 in0.0 mm 0.00 in0.0 mm 0.00 in0.0 mm
07:30 PM 56.5°F13.6°C 46.8°F8.2°C 70% 2.2 mph ESE3.5 kmh ESE 4.0 mph6.4 kmh 30.21 in1023.0 mb 0.00 in0.0 mm 0.00 in0.0 mm 0.00 in0.0 mm
07:32 PM 56.5°F13.6°C 46.8°F8.2°C 70% 2.9 mph E4.7 kmh E 5.8 mph9.3 kmh 30.21 in1023.0 mb 0.00 in0.0 mm 0.00 in0.0 mm 0.00 in0.0 mm
07:34 PM 56.3°F13.5°C 46.9°F8.3°C 71% 2.7 mph ENE4.3 kmh ENE 3.8 mph6.1 kmh 30.21 in1023.0 mb 0.00 in0.0 mm 0.00 in0.0 mm 0.00 in0.0 mm
07:37 PM 56.3°F13.5°C 46.9°F8.3°C 71% 1.6 mph ESE2.6 kmh ESE 1.6 mph2.6 kmh 30.21 in1023.0 mb 0.00 in0.0 mm 0.00 in0.0 mm 0.00 in0.0 mm
07:39 PM 56.1°F13.4°C 46.8°F8.2°C 71% 2.7 mph ESE4.3 kmh ESE 6.3 mph10.1 kmh 30.21 in1023.0 mb 0.00 in0.0 mm 0.00 in0.0 mm 0.00 in0.0 mm
07:41 PM 56.1°F13.4°C 46.8°F8.2°C 71% 3.1 mph E5.0 kmh E 5.4 mph8.7 kmh 30.22 in1023.4 mb 0.00 in0.0 mm 0.00 in0.0 mm 0.00 in0.0 mm
07:43 PM 55.9°F13.3°C 46.8°F8.2°C 71% 3.4 mph ESE5.5 kmh ESE 7.4 mph11.9 kmh 30.21 in1023.0 mb 0.00 in0.0 mm 0.00 in0.0 mm 0.00 in0.0 mm
07:45 PM 55.9°F13.3°C 47.1°F8.4°C 72% 4.0 mph ESE6.4 kmh ESE 6.7 mph10.8 kmh 30.22 in1023.4 mb 0.00 in0.0 mm 0.00 in0.0 mm 0.00 in0.0 mm
07:48 PM 55.9°F13.3°C 47.1°F8.4°C 72% 3.8 mph ESE6.1 kmh ESE 4.5 mph7.2 kmh 30.21 in1023.0 mb 0.00 in0.0 mm 0.00 in0.0 mm 0.00 in0.0 mm
07:50 PM 55.8°F13.2°C 46.9°F8.3°C 72% 4.7 mph ESE7.6 kmh ESE 7.8 mph12.6 kmh 30.22 in1023.4 mb 0.00 in0.0 mm 0.00 in0.0 mm 0.00 in0.0 mm
07:52 PM 55.8°F13.2°C 46.9°F8.3°C 72% 4.9 mph ESE7.9 kmh ESE 6.3 mph10.1 kmh 30.22 in1023.4 mb 0.00 in0.0 mm 0.00 in0.0 mm 0.00 in0.0 mm
07:54 PM 55.6°F13.1°C 47.1°F8.4°C 73% 3.8 mph SE6.1 kmh SE 4.7 mph7.6 kmh 30.22 in1023.4 mb 0.00 in0.0 mm 0.00 in0.0 mm 0.00 in0.0 mm
07:56 PM 55.6°F13.1°C 47.1°F8.4°C 73% 3.1 mph SE5.0 kmh SE 5.4 mph8.7 kmh 30.22 in1023.4 mb 0.00 in0.0 mm 0.00 in0.0 mm 0.00 in0.0 mm
07:59 PM 55.8°F13.2°C 47.3°F8.5°C 73% 3.1 mph E5.0 kmh E 5.8 mph9.3 kmh 30.22 in1023.4 mb 0.00 in0.0 mm 0.00 in0.0 mm 0.00 in0.0 mm
08:01 PM 55.8°F13.2°C 47.3°F8.5°C 73% 3.6 mph ESE5.8 kmh ESE 5.1 mph8.2 kmh 30.22 in1023.4 mb 0.00 in0.0 mm 0.00 in0.0 mm 0.00 in0.0 mm
08:03 PM 55.8°F13.2°C 47.3°F8.5°C 73% 3.8 mph SSE6.1 kmh SSE 6.3 mph10.1 kmh 30.22 in1023.4 mb 0.00 in0.0 mm 0.00 in0.0 mm 0.00 in0.0 mm
08:05 PM 55.9°F13.3°C 47.5°F8.6°C 73% 2.7 mph ESE4.3 kmh ESE 3.6 mph5.8 kmh 30.22 in1023.4 mb 0.00 in0.0 mm 0.00 in0.0 mm 0.00 in0.0 mm
08:08 PM 55.9°F13.3°C 47.5°F8.6°C 73% 2.0 mph SE3.2 kmh SE 3.1 mph5.0 kmh 30.22 in1023.4 mb 0.00 in0.0 mm 0.00 in0.0 mm 0.00 in0.0 mm
08:10 PM 56.1°F13.4°C 47.7°F8.7°C 73% 2.5 mph ESE4.0 kmh ESE 4.0 mph6.4 kmh 30.22 in1023.4 mb 0.00 in0.0 mm 0.00 in0.0 mm 0.00 in0.0 mm
08:12 PM 56.1°F13.4°C 47.7°F8.7°C 73% 2.7 mph SE4.3 kmh SE 5.6 mph9.0 kmh 30.22 in1023.4 mb 0.00 in0.0 mm 0.00 in0.0 mm 0.00 in0.0 mm
08:14 PM 56.3°F13.5°C 47.8°F8.8°C 73% 3.4 mph SE5.5 kmh SE 5.6 mph9.0 kmh 30.22 in1023.4 mb 0.00 in0.0 mm 0.00 in0.0 mm 0.00 in0.0 mm
08:16 PM 56.3°F13.5°C 47.8°F8.8°C 73% 2.7 mph SSE4.3 kmh SSE 3.6 mph5.8 kmh 30.22 in1023.4 mb 0.00 in0.0 mm 0.00 in0.0 mm 0.00 in0.0 mm
08:18 PM 56.5°F13.6°C 48.0°F8.9°C 73% 2.7 mph SE4.3 kmh SE 3.6 mph5.8 kmh 30.22 in1023.4 mb 0.00 in0.0 mm 0.00 in0.0 mm 0.00 in0.0 mm
08:21 PM 56.5°F13.6°C 48.0°F8.9°C 73% 2.2 mph ESE3.5 kmh ESE 3.6 mph5.8 kmh 30.22 in1023.4 mb 0.00 in0.0 mm 0.00 in0.0 mm 0.00 in0.0 mm
08:23 PM 56.8°F13.8°C 48.2°F9.0°C 73% 1.3 mph ESE2.1 kmh ESE 1.6 mph2.6 kmh 30.22 in1023.4 mb 0.00 in0.0 mm 0.00 in0.0 mm 0.00 in0.0 mm
08:25 PM 56.8°F13.8°C 48.2°F9.0°C 73% 1.6 mph ESE2.6 kmh ESE 3.6 mph5.8 kmh 30.22 in1023.4 mb 0.00 in0.0 mm 0.00 in0.0 mm 0.00 in0.0 mm
08:27 PM 56.7°F13.7°C 48.0°F8.9°C 73% 2.0 mph ESE3.2 kmh ESE 3.1 mph5.0 kmh 30.22 in1023.4 mb 0.00 in0.0 mm 0.00 in0.0 mm 0.00 in0.0 mm
08:30 PM 56.7°F13.7°C 48.0°F8.9°C 73% 1.6 mph SE2.6 kmh SE 2.0 mph3.2 kmh 30.22 in1023.4 mb 0.00 in0.0 mm 0.00 in0.0 mm 0.00 in0.0 mm
08:32 PM 56.5°F13.6°C 48.0°F8.9°C 73% 1.3 mph SE2.1 kmh SE 1.6 mph2.6 kmh 30.22 in1023.4 mb 0.00 in0.0 mm 0.00 in0.0 mm 0.00 in0.0 mm
08:34 PM 56.7°F13.7°C 48.0°F8.9°C 73% 1.3 mph SE2.1 kmh SE 2.9 mph4.7 kmh 30.22 in1023.4 mb 0.00 in0.0 mm 0.00 in0.0 mm 0.00 in0.0 mm
08:36 PM 56.7°F13.7°C 48.0°F8.9°C 73% 1.6 mph SE2.6 kmh SE 2.0 mph3.2 kmh 30.22 in1023.4 mb 0.00 in0.0 mm 0.00 in0.0 mm 0.00 in0.0 mm
08:39 PM 56.8°F13.8°C 48.2°F9.0°C 73% 2.5 mph ESE4.0 kmh ESE 5.4 mph8.7 kmh 30.22 in1023.4 mb 0.00 in0.0 mm 0.00 in0.0 mm 0.00 in0.0 mm
08:41 PM 56.8°F13.8°C 48.2°F9.0°C 73% 2.2 mph ESE3.5 kmh ESE 2.9 mph4.7 kmh 30.22 in1023.4 mb 0.00 in0.0 mm 0.00 in0.0 mm 0.00 in0.0 mm
08:43 PM 56.8°F13.8°C 48.2°F9.0°C 73% 1.8 mph ESE2.9 kmh ESE 2.2 mph3.5 kmh 30.22 in1023.4 mb 0.00 in0.0 mm 0.00 in0.0 mm 0.00 in0.0 mm
08:45 PM 56.8°F13.8°C 48.2°F9.0°C 73% 1.8 mph ESE2.9 kmh ESE 2.9 mph4.7 kmh 30.22 in1023.4 mb 0.00 in0.0 mm 0.00 in0.0 mm 0.00 in0.0 mm
08:47 PM 56.8°F13.8°C 48.2°F9.0°C 73% 1.1 mph SE1.8 kmh SE 1.8 mph2.9 kmh 30.22 in1023.4 mb 0.00 in0.0 mm 0.00 in0.0 mm 0.00 in0.0 mm
08:49 PM 56.7°F13.7°C 48.0°F8.9°C 73% 0.7 mph E1.1 kmh E -- 30.22 in1023.4 mb 0.00 in0.0 mm 0.00 in0.0 mm 0.00 in0.0 mm
08:51 PM 56.5°F13.6°C 48.0°F8.9°C 73% 0.4 mph ESE0.6 kmh ESE 1.3 mph2.1 kmh 30.22 in1023.4 mb 0.00 in0.0 mm 0.00 in0.0 mm 0.00 in0.0 mm
08:54 PM 56.5°F13.6°C 48.0°F8.9°C 73% 0.2 mph SE0.3 kmh SE -- 30.22 in1023.4 mb 0.00 in0.0 mm 0.00 in0.0 mm 0.00 in0.0 mm
08:56 PM 56.5°F13.6°C 48.0°F8.9°C 73% 0.7 mph SE1.1 kmh SE 1.6 mph2.6 kmh 30.22 in1023.4 mb 0.00 in0.0 mm 0.00 in0.0 mm 0.00 in0.0 mm
08:58 PM 56.5°F13.6°C 48.0°F8.9°C 73% 1.1 mph SE1.8 kmh SE 2.5 mph4.0 kmh 30.22 in1023.4 mb 0.00 in0.0 mm 0.00 in0.0 mm 0.00 in0.0 mm
09:00 PM 56.5°F13.6°C 48.0°F8.9°C 73% 1.1 mph SE1.8 kmh SE 2.2 mph3.5 kmh 30.22 in1023.4 mb 0.00 in0.0 mm 0.00 in0.0 mm 0.00 in0.0 mm
09:02 PM 56.5°F13.6°C 48.4°F9.1°C 74% 1.8 mph ESE2.9 kmh ESE 2.9 mph4.7 kmh 30.22 in1023.4 mb 0.00 in0.0 mm 0.00 in0.0 mm 0.00 in0.0 mm
09:05 PM 56.8°F13.8°C 48.2°F9.0°C 73% 0.9 mph SE1.4 kmh SE -- 30.22 in1023.4 mb 0.00 in0.0 mm 0.00 in0.0 mm 0.00 in0.0 mm
09:07 PM 56.8°F13.8°C 48.2°F9.0°C 73% 0.7 mph SE1.1 kmh SE 1.3 mph2.1 kmh 30.22 in1023.4 mb 0.00 in0.0 mm 0.00 in0.0 mm 0.00 in0.0 mm
09:09 PM 56.8°F13.8°C 48.6°F9.2°C 74% 0.7 mph ESE1.1 kmh ESE 1.6 mph2.6 kmh 30.22 in1023.4 mb 0.00 in0.0 mm 0.00 in0.0 mm 0.00 in0.0 mm
09:11 PM 57.0°F13.9°C 48.7°F9.3°C 74% 0.4 mph SSE0.6 kmh SSE 1.3 mph2.1 kmh 30.22 in1023.4 mb 0.00 in0.0 mm 0.00 in0.0 mm 0.00 in0.0 mm
09:13 PM 57.0°F13.9°C 48.7°F9.3°C 74% 0.4 mph SE0.6 kmh SE 0.9 mph1.4 kmh 30.22 in1023.4 mb 0.00 in0.0 mm 0.00 in0.0 mm 0.00 in0.0 mm
09:15 PM 57.4°F14.1°C 49.1°F9.5°C 74% 0.2 mph SE0.3 kmh SE -- 30.22 in1023.4 mb 0.00 in0.0 mm 0.00 in0.0 mm 0.00 in0.0 mm
09:18 PM 57.4°F14.1°C 49.1°F9.5°C 74% 0.2 mph SE0.3 kmh SE 0.9 mph1.4 kmh 30.22 in1023.4 mb 0.00 in0.0 mm 0.00 in0.0 mm 0.00 in0.0 mm
09:20 PM 57.4°F14.1°C 49.1°F9.5°C 74% 0.2 mph W0.3 kmh W 1.1 mph1.8 kmh 30.22 in1023.4 mb 0.00 in0.0 mm 0.00 in0.0 mm 0.00 in0.0 mm
09:22 PM 57.6°F14.2°C 49.3°F9.6°C 74% 0.2 mph SE0.3 kmh SE -- 30.23 in1023.7 mb 0.00 in0.0 mm 0.00 in0.0 mm 0.00 in0.0 mm
09:24 PM 57.7°F14.3°C 49.5°F9.7°C 74% 0.4 mph W0.6 kmh W 1.6 mph2.6 kmh 30.23 in1023.7 mb 0.00 in0.0 mm 0.00 in0.0 mm 0.00 in0.0 mm
09:27 PM 57.7°F14.3°C 49.5°F9.7°C 74% 0.2 mph W0.3 kmh W -- 30.23 in1023.7 mb 0.00 in0.0 mm 0.00 in0.0 mm 0.00 in0.0 mm
09:29 PM 57.7°F14.3°C 49.5°F9.7°C 74% 0.2 mph SSW0.3 kmh SSW -- 30.23 in1023.7 mb 0.00 in0.0 mm 0.00 in0.0 mm 0.00 in0.0 mm
09:31 PM 57.7°F14.3°C 49.5°F9.7°C 74% 0.2 mph NW0.3 kmh NW -- 30.23 in1023.7 mb 0.00 in0.0 mm 0.00 in0.0 mm 0.00 in0.0 mm
09:33 PM 57.7°F14.3°C 49.5°F9.7°C 74% 0.2 mph NW0.3 kmh NW -- 30.23 in1023.7 mb 0.00 in0.0 mm 0.00 in0.0 mm 0.00 in0.0 mm
09:35 PM 57.7°F14.3°C 49.5°F9.7°C 74% 0.2 mph W0.3 kmh W -- 30.23 in1023.7 mb 0.00 in0.0 mm 0.00 in0.0 mm 0.00 in0.0 mm
09:37 PM 57.7°F14.3°C 49.5°F9.7°C 74% 0.2 mph SW0.3 kmh SW -- 30.23 in1023.7 mb 0.00 in0.0 mm 0.00 in0.0 mm 0.00 in0.0 mm
09:39 PM 57.7°F14.3°C 49.5°F9.7°C 74% 0.2 mph WSW0.3 kmh WSW -- 30.23 in1023.7 mb 0.00 in0.0 mm 0.00 in0.0 mm 0.00 in0.0 mm
09:41 PM 57.7°F14.3°C 49.5°F9.7°C 74% 0.2 mph SE0.3 kmh SE -- 30.23 in1023.7 mb 0.00 in0.0 mm 0.00 in0.0 mm 0.00 in0.0 mm
09:43 PM 57.9°F14.4°C 49.6°F9.8°C 74% 0.2 mph ESE0.3 kmh ESE 1.1 mph1.8 kmh 30.23 in1023.7 mb 0.00 in0.0 mm 0.00 in0.0 mm 0.00 in0.0 mm
09:45 PM 57.9°F14.4°C 49.6°F9.8°C 74% 0.2 mph SE0.3 kmh SE 0.9 mph1.4 kmh 30.23 in1023.7 mb 0.00 in0.0 mm 0.00 in0.0 mm 0.00 in0.0 mm
09:48 PM 57.9°F14.4°C 49.6°F9.8°C 74% 0.2 mph ESE0.3 kmh ESE -- 30.23 in1023.7 mb 0.00 in0.0 mm 0.00 in0.0 mm 0.00 in0.0 mm
09:50 PM 58.1°F14.5°C 49.5°F9.7°C 73% 0.2 mph ESE0.3 kmh ESE -- 30.24 in1024.0 mb 0.00 in0.0 mm 0.00 in0.0 mm 0.00 in0.0 mm
09:52 PM 58.1°F14.5°C 49.5°F9.7°C 73% 0.2 mph E0.3 kmh E -- 30.24 in1024.0 mb 0.00 in0.0 mm 0.00 in0.0 mm 0.00 in0.0 mm
09:54 PM 58.1°F14.5°C 49.5°F9.7°C 73% 0.2 mph SE0.3 kmh SE -- 30.24 in1024.0 mb 0.00 in0.0 mm 0.00 in0.0 mm 0.00 in0.0 mm
09:57 PM 58.1°F14.5°C 49.5°F9.7°C 73% 0.2 mph SSE0.3 kmh SSE -- 30.24 in1024.0 mb 0.00 in0.0 mm 0.00 in0.0 mm 0.00 in0.0 mm
09:59 PM 58.1°F14.5°C 49.5°F9.7°C 73% 0.2 mph SSE0.3 kmh SSE 0.9 mph1.4 kmh 30.24 in1024.0 mb 0.00 in0.0 mm 0.00 in0.0 mm 0.00 in0.0 mm
10:01 PM 58.1°F14.5°C 49.5°F9.7°C 73% 0.2 mph WSW0.3 kmh WSW -- 30.24 in1024.0 mb 0.00 in0.0 mm 0.00 in0.0 mm 0.00 in0.0 mm
10:03 PM 57.9°F14.4°C 49.3°F9.6°C 73% 0.2 mph W0.3 kmh W -- 30.24 in1024.0 mb 0.00 in0.0 mm 0.00 in0.0 mm 0.00 in0.0 mm
10:05 PM 57.9°F14.4°C 49.3°F9.6°C 73% 0.2 mph W0.3 kmh W -- 30.24 in1024.0 mb 0.00 in0.0 mm 0.00 in0.0 mm 0.00 in0.0 mm
10:07 PM 57.9°F14.4°C 49.3°F9.6°C 73% 0.2 mph SW0.3 kmh SW -- 30.24 in1024.0 mb 0.00 in0.0 mm 0.00 in0.0 mm 0.00 in0.0 mm
10:10 PM 57.9°F14.4°C 49.3°F9.6°C 73% 0.2 mph E0.3 kmh E 0.9 mph1.4 kmh 30.24 in1024.0 mb 0.00 in0.0 mm 0.00 in0.0 mm 0.00 in0.0 mm
10:12 PM 57.9°F14.4°C 49.3°F9.6°C 73% 0.7 mph W1.1 kmh W 3.1 mph5.0 kmh 30.24 in1024.0 mb 0.00 in0.0 mm 0.00 in0.0 mm 0.00 in0.0 mm
10:14 PM 57.9°F14.4°C 49.3°F9.6°C 73% 0.4 mph W0.6 kmh W 0.9 mph1.4 kmh 30.24 in1024.0 mb 0.00 in0.0 mm 0.00 in0.0 mm 0.00 in0.0 mm
10:16 PM 57.9°F14.4°C 49.3°F9.6°C 73% 0.7 mph W1.1 kmh W 2.0 mph3.2 kmh 30.24 in1024.0 mb 0.00 in0.0 mm 0.00 in0.0 mm 0.00 in0.0 mm
10:18 PM 57.9°F14.4°C 49.3°F9.6°C 73% 0.4 mph W0.6 kmh W -- 30.24 in1024.0 mb 0.00 in0.0 mm 0.00 in0.0 mm 0.00 in0.0 mm
10:21 PM 57.7°F14.3°C 49.1°F9.5°C 73% 0.2 mph NW0.3 kmh NW 0.7 mph1.1 kmh 30.24 in1024.0 mb 0.00 in0.0 mm 0.00 in0.0 mm 0.00 in0.0 mm
10:23 PM 57.7°F14.3°C 49.1°F9.5°C 73% 0.7 mph W1.1 kmh W 2.2 mph3.5 kmh 30.24 in1024.0 mb 0.00 in0.0 mm 0.00 in0.0 mm 0.00 in0.0 mm
10:25 PM 57.6°F14.2°C 48.9°F9.4°C 73% 0.4 mph W0.6 kmh W 2.2 mph3.5 kmh 30.24 in1024.0 mb 0.00 in0.0 mm 0.00 in0.0 mm 0.00 in0.0 mm
10:27 PM 57.6°F14.2°C 48.9°F9.4°C 73% 0.2 mph W0.3 kmh W -- 30.24 in1024.0 mb 0.00 in0.0 mm 0.00 in0.0 mm 0.00 in0.0 mm
10:29 PM 57.4°F14.1°C 48.7°F9.3°C 73% 0.4 mph WSW0.6 kmh WSW 1.6 mph2.6 kmh 30.24 in1024.0 mb 0.00 in0.0 mm 0.00 in0.0 mm 0.00 in0.0 mm
10:31 PM 57.4°F14.1°C 48.7°F9.3°C 73% 0.2 mph W0.3 kmh W -- 30.24 in1024.0 mb 0.00 in0.0 mm 0.00 in0.0 mm 0.00 in0.0 mm
10:33 PM 57.4°F14.1°C 48.7°F9.3°C 73% 0.2 mph SE0.3 kmh SE -- 30.24 in1024.0 mb 0.00 in0.0 mm 0.00 in0.0 mm 0.00 in0.0 mm
10:36 PM 57.2°F14.0°C 48.6°F9.2°C 73% 0.2 mph W0.3 kmh W -- 30.24 in1024.0 mb 0.00 in0.0 mm 0.00 in0.0 mm 0.00 in0.0 mm
10:38 PM 57.0°F13.9°C 48.4°F9.1°C 73% 0.2 mph W0.3 kmh W -- 30.24 in1024.0 mb 0.00 in0.0 mm 0.00 in0.0 mm 0.00 in0.0 mm
10:40 PM 57.0°F13.9°C 48.4°F9.1°C 73% 0.2 mph SSE0.3 kmh SSE -- 30.24 in1024.0 mb 0.00 in0.0 mm 0.00 in0.0 mm 0.00 in0.0 mm
10:42 PM 57.0°F13.9°C 48.4°F9.1°C 73% 0.2 mph SSE0.3 kmh SSE -- 30.24 in1024.0 mb 0.00 in0.0 mm 0.00 in0.0 mm 0.00 in0.0 mm
10:45 PM 56.8°F13.8°C 48.2°F9.0°C 73% 0.2 mph SE0.3 kmh SE -- 30.24 in1024.0 mb 0.00 in0.0 mm 0.00 in0.0 mm 0.00 in0.0 mm
10:47 PM 56.8°F13.8°C 48.2°F9.0°C 73% 0.2 mph SE0.3 kmh SE 1.1 mph1.8 kmh 30.24 in1024.0 mb 0.00 in0.0 mm 0.00 in0.0 mm 0.00 in0.0 mm
10:49 PM 56.7°F13.7°C 48.0°F8.9°C 73% 0.2 mph SE0.3 kmh SE 0.7 mph1.1 kmh 30.24 in1024.0 mb 0.00 in0.0 mm 0.00 in0.0 mm 0.00 in0.0 mm
10:52 PM 56.5°F13.6°C 48.0°F8.9°C 73% 0.4 mph SE0.6 kmh SE 1.1 mph1.8 kmh 30.24 in1024.0 mb 0.00 in0.0 mm 0.00 in0.0 mm 0.00 in0.0 mm
10:54 PM 56.5°F13.6°C 48.0°F8.9°C 73% 0.4 mph SSE0.6 kmh SSE 1.6 mph2.6 kmh 30.24 in1024.0 mb 0.00 in0.0 mm 0.00 in0.0 mm 0.00 in0.0 mm
10:56 PM 56.5°F13.6°C 48.0°F8.9°C 73% 0.7 mph SE1.1 kmh SE 1.8 mph2.9 kmh 30.24 in1024.0 mb 0.00 in0.0 mm 0.00 in0.0 mm 0.00 in0.0 mm
10:58 PM 56.3°F13.5°C 47.8°F8.8°C 73% 1.1 mph SSE1.8 kmh SSE 2.0 mph3.2 kmh 30.24 in1024.0 mb 0.00 in0.0 mm 0.00 in0.0 mm 0.00 in0.0 mm
11:00 PM 56.1°F13.4°C 47.7°F8.7°C 73% 0.7 mph SE1.1 kmh SE 1.3 mph2.1 kmh 30.24 in1024.0 mb 0.00 in0.0 mm 0.00 in0.0 mm 0.00 in0.0 mm
11:03 PM 56.1°F13.4°C 48.0°F8.9°C 74% 1.1 mph ESE1.8 kmh ESE 2.0 mph3.2 kmh 30.24 in1024.0 mb 0.00 in0.0 mm 0.00 in0.0 mm 0.00 in0.0 mm
11:05 PM 56.1°F13.4°C 48.0°F8.9°C 74% 0.9 mph SE1.4 kmh SE 1.3 mph2.1 kmh 30.24 in1024.0 mb 0.00 in0.0 mm 0.00 in0.0 mm 0.00 in0.0 mm
11:07 PM 56.1°F13.4°C 48.0°F8.9°C 74% 1.1 mph SE1.8 kmh SE 2.2 mph3.5 kmh 30.25 in1024.4 mb 0.00 in0.0 mm 0.00 in0.0 mm 0.00 in0.0 mm
11:09 PM 56.3°F13.5°C 48.2°F9.0°C 74% 1.1 mph SE1.8 kmh SE 2.2 mph3.5 kmh 30.25 in1024.4 mb 0.00 in0.0 mm 0.00 in0.0 mm 0.00 in0.0 mm
11:11 PM 56.3°F13.5°C 48.2°F9.0°C 74% 1.6 mph SE2.6 kmh SE 2.2 mph3.5 kmh 30.24 in1024.0 mb 0.00 in0.0 mm 0.00 in0.0 mm 0.00 in0.0 mm
11:14 PM 56.5°F13.6°C 48.4°F9.1°C 74% 1.8 mph SE2.9 kmh SE 2.7 mph4.3 kmh 30.25 in1024.4 mb 0.00 in0.0 mm 0.00 in0.0 mm 0.00 in0.0 mm
11:16 PM 56.5°F13.6°C 48.4°F9.1°C 74% 1.3 mph SE2.1 kmh SE 1.3 mph2.1 kmh 30.24 in1024.0 mb 0.00 in0.0 mm 0.00 in0.0 mm 0.00 in0.0 mm
11:18 PM 56.5°F13.6°C 48.4°F9.1°C 74% 0.9 mph SE1.4 kmh SE 1.1 mph1.8 kmh 30.24 in1024.0 mb 0.00 in0.0 mm 0.00 in0.0 mm 0.00 in0.0 mm
11:20 PM 56.1°F13.4°C 48.0°F8.9°C 74% 1.1 mph SSE1.8 kmh SSE 2.0 mph3.2 kmh 30.24 in1024.0 mb 0.00 in0.0 mm 0.00 in0.0 mm 0.00 in0.0 mm
11:22 PM 56.1°F13.4°C 48.0°F8.9°C 74% 0.9 mph SE1.4 kmh SE 1.8 mph2.9 kmh 30.24 in1024.0 mb 0.00 in0.0 mm 0.00 in0.0 mm 0.00 in0.0 mm
11:24 PM 55.9°F13.3°C 47.8°F8.8°C 74% 1.3 mph SSE2.1 kmh SSE 1.8 mph2.9 kmh 30.24 in1024.0 mb 0.00 in0.0 mm 0.00 in0.0 mm 0.00 in0.0 mm
11:27 PM 55.9°F13.3°C 47.8°F8.8°C 74% 1.6 mph SSE2.6 kmh SSE 2.5 mph4.0 kmh 30.24 in1024.0 mb 0.00 in0.0 mm 0.00 in0.0 mm 0.00 in0.0 mm
11:29 PM 55.9°F13.3°C 47.8°F8.8°C 74% 2.0 mph ESE3.2 kmh ESE 2.9 mph4.7 kmh 30.24 in1024.0 mb 0.00 in0.0 mm 0.00 in0.0 mm 0.00 in0.0 mm
11:31 PM 55.9°F13.3°C 48.2°F9.0°C 75% 2.2 mph ESE3.5 kmh ESE 2.9 mph4.7 kmh 30.25 in1024.4 mb 0.00 in0.0 mm 0.00 in0.0 mm 0.00 in0.0 mm
11:34 PM 55.8°F13.2°C 48.0°F8.9°C 75% 2.7 mph ESE4.3 kmh ESE 3.8 mph6.1 kmh 30.24 in1024.0 mb 0.00 in0.0 mm 0.00 in0.0 mm 0.00 in0.0 mm
11:36 PM 55.6°F13.1°C 47.8°F8.8°C 75% 2.7 mph ESE4.3 kmh ESE 3.1 mph5.0 kmh 30.25 in1024.4 mb 0.00 in0.0 mm 0.00 in0.0 mm 0.00 in0.0 mm
11:38 PM 55.6°F13.1°C 47.8°F8.8°C 75% 2.9 mph ESE4.7 kmh ESE 3.1 mph5.0 kmh 30.24 in1024.0 mb 0.00 in0.0 mm 0.00 in0.0 mm 0.00 in0.0 mm
11:40 PM 55.6°F13.1°C 47.8°F8.8°C 75% 2.5 mph ESE4.0 kmh ESE 2.9 mph4.7 kmh 30.25 in1024.4 mb 0.00 in0.0 mm 0.00 in0.0 mm 0.00 in0.0 mm
11:42 PM 55.6°F13.1°C 47.8°F8.8°C 75% 1.8 mph ESE2.9 kmh ESE 2.5 mph4.0 kmh 30.25 in1024.4 mb 0.00 in0.0 mm 0.00 in0.0 mm 0.00 in0.0 mm
11:45 PM 55.8°F13.2°C 48.0°F8.9°C 75% 1.3 mph E2.1 kmh E 2.0 mph3.2 kmh 30.24 in1024.0 mb 0.00 in0.0 mm 0.00 in0.0 mm 0.00 in0.0 mm
11:47 PM 55.8°F13.2°C 48.0°F8.9°C 75% 0.9 mph ESE1.4 kmh ESE 1.3 mph2.1 kmh 30.25 in1024.4 mb 0.00 in0.0 mm 0.00 in0.0 mm 0.00 in0.0 mm
11:49 PM 55.9°F13.3°C 48.2°F9.0°C 75% 0.7 mph SE1.1 kmh SE 0.7 mph1.1 kmh 30.24 in1024.0 mb 0.00 in0.0 mm 0.00 in0.0 mm 0.00 in0.0 mm
11:51 PM 56.1°F13.4°C 48.4°F9.1°C 75% 0.7 mph SE1.1 kmh SE 1.6 mph2.6 kmh 30.24 in1024.0 mb 0.00 in0.0 mm 0.00 in0.0 mm 0.00 in0.0 mm
11:53 PM 56.3°F13.5°C 48.9°F9.4°C 76% 0.7 mph SE1.1 kmh SE 1.6 mph2.6 kmh 30.24 in1024.0 mb 0.00 in0.0 mm 0.00 in0.0 mm 0.00 in0.0 mm
11:55 PM 56.3°F13.5°C 48.9°F9.4°C 76% 0.7 mph SE1.1 kmh SE 0.9 mph1.4 kmh 30.24 in1024.0 mb 0.00 in0.0 mm 0.00 in0.0 mm 0.00 in0.0 mm
11:58 PM 56.5°F13.6°C 48.9°F9.4°C 76% 0.4 mph ESE0.6 kmh ESE -- 30.24 in1024.0 mb 0.00 in0.0 mm 0.00 in0.0 mm 0.00 in0.0 mm